<?xml version="1.0" encoding="UTF-8" standalone="no" ?>
<gpx xmlns="http://www.topografix.com/GPX/1/1" xmlns:xsi="http://www.w3.org/2001/XMLSchema-instance" xsi:schemaLocation="http://www.topografix.com/GPX/1/1 http://www.topografix.com/GPX/1/1/gpx.xsd" version="1.1" creator="VisuGPX - https://www.visugpx.com">
  <metadata>
    <name>Versailles - Etang du Moulin</name>
    <desc><![CDATA[Versailles - Etang du Moulin - via Buc]]></desc>
  </metadata>
  <trk>
    <name><![CDATA[Track 114]]></name>
    <desc><![CDATA[3 sept. 2013 4:36 pm]]></desc>
    <trkseg>
      <trkpt lat="48.8195" lon="2.11497">
        <ele>124.466</ele>
        <time>2013-09-03T14:37:40.791Z</time>
      </trkpt>
      <trkpt lat="48.8195" lon="2.11497">
        <ele>127.77</ele>
        <time>2013-09-03T14:37:49.218Z</time>
      </trkpt>
      <trkpt lat="48.81934" lon="2.11485">
        <ele>129.944</ele>
        <time>2013-09-03T14:38:12.600Z</time>
      </trkpt>
      <trkpt lat="48.8193" lon="2.11482">
        <ele>128.159</ele>
        <time>2013-09-03T14:38:14.521Z</time>
      </trkpt>
      <trkpt lat="48.81916" lon="2.11473">
        <ele>124.173</ele>
        <time>2013-09-03T14:38:19.222Z</time>
      </trkpt>
      <trkpt lat="48.81902" lon="2.11464">
        <ele>121.104</ele>
        <time>2013-09-03T14:38:23.176Z</time>
      </trkpt>
      <trkpt lat="48.81888" lon="2.11455">
        <ele>119.882</ele>
        <time>2013-09-03T14:38:26.386Z</time>
      </trkpt>
      <trkpt lat="48.81871" lon="2.11445">
        <ele>119.858</ele>
        <time>2013-09-03T14:38:29.731Z</time>
      </trkpt>
      <trkpt lat="48.81861" lon="2.1144">
        <ele>120.186</ele>
        <time>2013-09-03T14:38:31.894Z</time>
      </trkpt>
      <trkpt lat="48.81845" lon="2.1143">
        <ele>120.44</ele>
        <time>2013-09-03T14:38:34.963Z</time>
      </trkpt>
      <trkpt lat="48.81829" lon="2.11421">
        <ele>120.619</ele>
        <time>2013-09-03T14:38:37.998Z</time>
      </trkpt>
      <trkpt lat="48.81819" lon="2.11415">
        <ele>120.827</ele>
        <time>2013-09-03T14:38:39.989Z</time>
      </trkpt>
      <trkpt lat="48.81808" lon="2.11407">
        <ele>121.209</ele>
        <time>2013-09-03T14:38:42.134Z</time>
      </trkpt>
      <trkpt lat="48.81793" lon="2.11398">
        <ele>121.784</ele>
        <time>2013-09-03T14:38:45.059Z</time>
      </trkpt>
      <trkpt lat="48.81783" lon="2.11392">
        <ele>122.091</ele>
        <time>2013-09-03T14:38:46.867Z</time>
      </trkpt>
      <trkpt lat="48.81768" lon="2.11383">
        <ele>121.545</ele>
        <time>2013-09-03T14:38:49.791Z</time>
      </trkpt>
      <trkpt lat="48.81753" lon="2.11375">
        <ele>120.3</ele>
        <time>2013-09-03T14:38:52.674Z</time>
      </trkpt>
      <trkpt lat="48.81738" lon="2.11364">
        <ele>119.161</ele>
        <time>2013-09-03T14:38:55.569Z</time>
      </trkpt>
      <trkpt lat="48.81728" lon="2.11359">
        <ele>118.623</ele>
        <time>2013-09-03T14:38:57.460Z</time>
      </trkpt>
      <trkpt lat="48.81717" lon="2.11353">
        <ele>118.665</ele>
        <time>2013-09-03T14:38:59.364Z</time>
      </trkpt>
      <trkpt lat="48.81702" lon="2.11345">
        <ele>119.068</ele>
        <time>2013-09-03T14:39:02.249Z</time>
      </trkpt>
      <trkpt lat="48.81692" lon="2.11339">
        <ele>119.402</ele>
        <time>2013-09-03T14:39:04.219Z</time>
      </trkpt>
      <trkpt lat="48.81676" lon="2.1133">
        <ele>119.396</ele>
        <time>2013-09-03T14:39:07.203Z</time>
      </trkpt>
      <trkpt lat="48.81666" lon="2.11324">
        <ele>119.311</ele>
        <time>2013-09-03T14:39:09.224Z</time>
      </trkpt>
      <trkpt lat="48.8165" lon="2.11315">
        <ele>119.438</ele>
        <time>2013-09-03T14:39:12.144Z</time>
      </trkpt>
      <trkpt lat="48.81636" lon="2.11308">
        <ele>119.692</ele>
        <time>2013-09-03T14:39:14.904Z</time>
      </trkpt>
      <trkpt lat="48.81626" lon="2.11301">
        <ele>119.661</ele>
        <time>2013-09-03T14:39:16.974Z</time>
      </trkpt>
      <trkpt lat="48.81612" lon="2.11292">
        <ele>119.157</ele>
        <time>2013-09-03T14:39:19.785Z</time>
      </trkpt>
      <trkpt lat="48.81597" lon="2.11284">
        <ele>118.559</ele>
        <time>2013-09-03T14:39:22.711Z</time>
      </trkpt>
      <trkpt lat="48.81583" lon="2.11276">
        <ele>118.27</ele>
        <time>2013-09-03T14:39:25.468Z</time>
      </trkpt>
      <trkpt lat="48.81569" lon="2.11268">
        <ele>118.356</ele>
        <time>2013-09-03T14:39:28.566Z</time>
      </trkpt>
      <trkpt lat="48.81559" lon="2.11263">
        <ele>118.717</ele>
        <time>2013-09-03T14:39:30.630Z</time>
      </trkpt>
      <trkpt lat="48.81546" lon="2.11265">
        <ele>119.079</ele>
        <time>2013-09-03T14:39:33.322Z</time>
      </trkpt>
      <trkpt lat="48.81533" lon="2.11261">
        <ele>119.222</ele>
        <time>2013-09-03T14:39:35.828Z</time>
      </trkpt>
      <trkpt lat="48.81524" lon="2.11255">
        <ele>118.548</ele>
        <time>2013-09-03T14:39:37.802Z</time>
      </trkpt>
      <trkpt lat="48.8151" lon="2.11247">
        <ele>116.813</ele>
        <time>2013-09-03T14:39:40.857Z</time>
      </trkpt>
      <trkpt lat="48.81501" lon="2.11242">
        <ele>115.544</ele>
        <time>2013-09-03T14:39:42.766Z</time>
      </trkpt>
      <trkpt lat="48.81487" lon="2.11233">
        <ele>115.956</ele>
        <time>2013-09-03T14:39:45.784Z</time>
      </trkpt>
      <trkpt lat="48.81473" lon="2.11225">
        <ele>117.138</ele>
        <time>2013-09-03T14:39:48.743Z</time>
      </trkpt>
      <trkpt lat="48.81459" lon="2.11217">
        <ele>117.757</ele>
        <time>2013-09-03T14:39:51.658Z</time>
      </trkpt>
      <trkpt lat="48.81444" lon="2.11209">
        <ele>117.508</ele>
        <time>2013-09-03T14:39:54.583Z</time>
      </trkpt>
      <trkpt lat="48.81434" lon="2.11203">
        <ele>116.863</ele>
        <time>2013-09-03T14:39:56.671Z</time>
      </trkpt>
      <trkpt lat="48.81419" lon="2.11194">
        <ele>115.968</ele>
        <time>2013-09-03T14:39:59.808Z</time>
      </trkpt>
      <trkpt lat="48.81403" lon="2.11185">
        <ele>114.724</ele>
        <time>2013-09-03T14:40:02.894Z</time>
      </trkpt>
      <trkpt lat="48.81387" lon="2.11175">
        <ele>113.665</ele>
        <time>2013-09-03T14:40:06.063Z</time>
      </trkpt>
      <trkpt lat="48.81371" lon="2.11167">
        <ele>113.126</ele>
        <time>2013-09-03T14:40:09.152Z</time>
      </trkpt>
      <trkpt lat="48.81356" lon="2.11156">
        <ele>112.826</ele>
        <time>2013-09-03T14:40:12.097Z</time>
      </trkpt>
      <trkpt lat="48.81346" lon="2.1115">
        <ele>112.568</ele>
        <time>2013-09-03T14:40:14.045Z</time>
      </trkpt>
      <trkpt lat="48.81336" lon="2.11144">
        <ele>112.393</ele>
        <time>2013-09-03T14:40:16.054Z</time>
      </trkpt>
      <trkpt lat="48.81326" lon="2.11137">
        <ele>112.43</ele>
        <time>2013-09-03T14:40:18.112Z</time>
      </trkpt>
      <trkpt lat="48.81315" lon="2.11131">
        <ele>112.731</ele>
        <time>2013-09-03T14:40:20.252Z</time>
      </trkpt>
      <trkpt lat="48.81299" lon="2.11123">
        <ele>113.19</ele>
        <time>2013-09-03T14:40:23.503Z</time>
      </trkpt>
      <trkpt lat="48.8129" lon="2.11113">
        <ele>113.623</ele>
        <time>2013-09-03T14:40:25.526Z</time>
      </trkpt>
      <trkpt lat="48.81279" lon="2.11098">
        <ele>113.866</ele>
        <time>2013-09-03T14:40:28.521Z</time>
      </trkpt>
      <trkpt lat="48.81272" lon="2.1109">
        <ele>113.887</ele>
        <time>2013-09-03T14:40:30.407Z</time>
      </trkpt>
      <trkpt lat="48.81263" lon="2.11084">
        <ele>113.271</ele>
        <time>2013-09-03T14:40:32.386Z</time>
      </trkpt>
      <trkpt lat="48.8125" lon="2.11076">
        <ele>111.854</ele>
        <time>2013-09-03T14:40:35.385Z</time>
      </trkpt>
      <trkpt lat="48.81239" lon="2.11067">
        <ele>110.547</ele>
        <time>2013-09-03T14:40:38.029Z</time>
      </trkpt>
      <trkpt lat="48.81229" lon="2.11061">
        <ele>110.101</ele>
        <time>2013-09-03T14:40:40.489Z</time>
      </trkpt>
      <trkpt lat="48.81216" lon="2.11058">
        <ele>110.045</ele>
        <time>2013-09-03T14:40:43.201Z</time>
      </trkpt>
      <trkpt lat="48.81202" lon="2.11054">
        <ele>109.826</ele>
        <time>2013-09-03T14:40:46.232Z</time>
      </trkpt>
      <trkpt lat="48.81188" lon="2.11046">
        <ele>109.744</ele>
        <time>2013-09-03T14:40:49.268Z</time>
      </trkpt>
      <trkpt lat="48.81173" lon="2.11038">
        <ele>110.431</ele>
        <time>2013-09-03T14:40:52.653Z</time>
      </trkpt>
      <trkpt lat="48.81164" lon="2.11033">
        <ele>111.675</ele>
        <time>2013-09-03T14:40:54.539Z</time>
      </trkpt>
      <trkpt lat="48.81152" lon="2.11026">
        <ele>112.77</ele>
        <time>2013-09-03T14:40:57.148Z</time>
      </trkpt>
      <trkpt lat="48.81135" lon="2.11015">
        <ele>113.316</ele>
        <time>2013-09-03T14:41:00.829Z</time>
      </trkpt>
      <trkpt lat="48.81123" lon="2.11009">
        <ele>113.318</ele>
        <time>2013-09-03T14:41:03.178Z</time>
      </trkpt>
      <trkpt lat="48.81108" lon="2.10998">
        <ele>112.928</ele>
        <time>2013-09-03T14:41:06.522Z</time>
      </trkpt>
      <trkpt lat="48.81096" lon="2.1099">
        <ele>112.356</ele>
        <time>2013-09-03T14:41:09.185Z</time>
      </trkpt>
      <trkpt lat="48.81086" lon="2.10984">
        <ele>111.762</ele>
        <time>2013-09-03T14:41:11.187Z</time>
      </trkpt>
      <trkpt lat="48.81068" lon="2.10972">
        <ele>111.283</ele>
        <time>2013-09-03T14:41:14.874Z</time>
      </trkpt>
      <trkpt lat="48.81058" lon="2.10966">
        <ele>110.914</ele>
        <time>2013-09-03T14:41:17.056Z</time>
      </trkpt>
      <trkpt lat="48.81043" lon="2.10956">
        <ele>110.625</ele>
        <time>2013-09-03T14:41:20.090Z</time>
      </trkpt>
      <trkpt lat="48.81034" lon="2.10948">
        <ele>110.556</ele>
        <time>2013-09-03T14:41:22.081Z</time>
      </trkpt>
      <trkpt lat="48.8102" lon="2.10937">
        <ele>110.951</ele>
        <time>2013-09-03T14:41:25.174Z</time>
      </trkpt>
      <trkpt lat="48.8101" lon="2.1093">
        <ele>111.778</ele>
        <time>2013-09-03T14:41:27.256Z</time>
      </trkpt>
      <trkpt lat="48.81" lon="2.10924">
        <ele>112.657</ele>
        <time>2013-09-03T14:41:29.182Z</time>
      </trkpt>
      <trkpt lat="48.80986" lon="2.10915">
        <ele>113.013</ele>
        <time>2013-09-03T14:41:32.252Z</time>
      </trkpt>
      <trkpt lat="48.8097" lon="2.10905">
        <ele>112.683</ele>
        <time>2013-09-03T14:41:35.679Z</time>
      </trkpt>
      <trkpt lat="48.80956" lon="2.10897">
        <ele>112.065</ele>
        <time>2013-09-03T14:41:38.687Z</time>
      </trkpt>
      <trkpt lat="48.80942" lon="2.1089">
        <ele>111.585</ele>
        <time>2013-09-03T14:41:41.675Z</time>
      </trkpt>
      <trkpt lat="48.80928" lon="2.10883">
        <ele>111.355</ele>
        <time>2013-09-03T14:41:44.630Z</time>
      </trkpt>
      <trkpt lat="48.80914" lon="2.10877">
        <ele>111.324</ele>
        <time>2013-09-03T14:41:47.774Z</time>
      </trkpt>
      <trkpt lat="48.80902" lon="2.1087">
        <ele>111.129</ele>
        <time>2013-09-03T14:41:50.419Z</time>
      </trkpt>
      <trkpt lat="48.80889" lon="2.10863">
        <ele>110.694</ele>
        <time>2013-09-03T14:41:53.161Z</time>
      </trkpt>
      <trkpt lat="48.80879" lon="2.10868">
        <ele>110.462</ele>
        <time>2013-09-03T14:41:55.119Z</time>
      </trkpt>
      <trkpt lat="48.8087" lon="2.10876">
        <ele>110.58</ele>
        <time>2013-09-03T14:41:57.327Z</time>
      </trkpt>
      <trkpt lat="48.80859" lon="2.10893">
        <ele>110.516</ele>
        <time>2013-09-03T14:42:00.660Z</time>
      </trkpt>
      <trkpt lat="48.80856" lon="2.10907">
        <ele>109.986</ele>
        <time>2013-09-03T14:42:02.683Z</time>
      </trkpt>
      <trkpt lat="48.80848" lon="2.10922">
        <ele>109.307</ele>
        <time>2013-09-03T14:42:05.368Z</time>
      </trkpt>
      <trkpt lat="48.80839" lon="2.10936">
        <ele>109.295</ele>
        <time>2013-09-03T14:42:07.993Z</time>
      </trkpt>
      <trkpt lat="48.80828" lon="2.10947">
        <ele>110.204</ele>
        <time>2013-09-03T14:42:10.807Z</time>
      </trkpt>
      <trkpt lat="48.80819" lon="2.10953">
        <ele>111.026</ele>
        <time>2013-09-03T14:42:12.715Z</time>
      </trkpt>
      <trkpt lat="48.80805" lon="2.10956">
        <ele>110.705</ele>
        <time>2013-09-03T14:42:15.475Z</time>
      </trkpt>
      <trkpt lat="48.80791" lon="2.10954">
        <ele>109.538</ele>
        <time>2013-09-03T14:42:18.431Z</time>
      </trkpt>
      <trkpt lat="48.80782" lon="2.10949">
        <ele>108.443</ele>
        <time>2013-09-03T14:42:20.284Z</time>
      </trkpt>
      <trkpt lat="48.80769" lon="2.10937">
        <ele>107.897</ele>
        <time>2013-09-03T14:42:23.108Z</time>
      </trkpt>
      <trkpt lat="48.80761" lon="2.1093">
        <ele>107.771</ele>
        <time>2013-09-03T14:42:25.006Z</time>
      </trkpt>
      <trkpt lat="48.80748" lon="2.10916">
        <ele>107.761</ele>
        <time>2013-09-03T14:42:27.852Z</time>
      </trkpt>
      <trkpt lat="48.80738" lon="2.10899">
        <ele>107.698</ele>
        <time>2013-09-03T14:42:30.767Z</time>
      </trkpt>
      <trkpt lat="48.80731" lon="2.10877">
        <ele>107.582</ele>
        <time>2013-09-03T14:42:33.715Z</time>
      </trkpt>
      <trkpt lat="48.80725" lon="2.10855">
        <ele>107.488</ele>
        <time>2013-09-03T14:42:36.615Z</time>
      </trkpt>
      <trkpt lat="48.80723" lon="2.1084">
        <ele>107.456</ele>
        <time>2013-09-03T14:42:38.516Z</time>
      </trkpt>
      <trkpt lat="48.80725" lon="2.10824">
        <ele>107.462</ele>
        <time>2013-09-03T14:42:40.617Z</time>
      </trkpt>
      <trkpt lat="48.80724" lon="2.10798">
        <ele>107.449</ele>
        <time>2013-09-03T14:42:43.705Z</time>
      </trkpt>
      <trkpt lat="48.80716" lon="2.1078">
        <ele>107.38</ele>
        <time>2013-09-03T14:42:46.438Z</time>
      </trkpt>
      <trkpt lat="48.807" lon="2.10772">
        <ele>107.293</ele>
        <time>2013-09-03T14:42:49.535Z</time>
      </trkpt>
      <trkpt lat="48.80684" lon="2.10767">
        <ele>107.449</ele>
        <time>2013-09-03T14:42:52.564Z</time>
      </trkpt>
      <trkpt lat="48.8067" lon="2.10759">
        <ele>108.407</ele>
        <time>2013-09-03T14:42:55.413Z</time>
      </trkpt>
      <trkpt lat="48.80656" lon="2.1075">
        <ele>110.159</ele>
        <time>2013-09-03T14:42:58.397Z</time>
      </trkpt>
      <trkpt lat="48.80648" lon="2.10743">
        <ele>111.767</ele>
        <time>2013-09-03T14:43:00.314Z</time>
      </trkpt>
      <trkpt lat="48.80639" lon="2.10738">
        <ele>112.717</ele>
        <time>2013-09-03T14:43:02.218Z</time>
      </trkpt>
      <trkpt lat="48.80626" lon="2.1073">
        <ele>113.351</ele>
        <time>2013-09-03T14:43:05.088Z</time>
      </trkpt>
      <trkpt lat="48.80613" lon="2.10723">
        <ele>113.964</ele>
        <time>2013-09-03T14:43:07.840Z</time>
      </trkpt>
      <trkpt lat="48.80604" lon="2.10719">
        <ele>114.81</ele>
        <time>2013-09-03T14:43:09.691Z</time>
      </trkpt>
      <trkpt lat="48.80591" lon="2.10712">
        <ele>116.125</ele>
        <time>2013-09-03T14:43:12.512Z</time>
      </trkpt>
      <trkpt lat="48.80578" lon="2.10704">
        <ele>117.55</ele>
        <time>2013-09-03T14:43:15.464Z</time>
      </trkpt>
      <trkpt lat="48.8057" lon="2.10699">
        <ele>118.28</ele>
        <time>2013-09-03T14:43:17.400Z</time>
      </trkpt>
      <trkpt lat="48.80557" lon="2.10691">
        <ele>118.095</ele>
        <time>2013-09-03T14:43:20.244Z</time>
      </trkpt>
      <trkpt lat="48.80549" lon="2.10685">
        <ele>117.615</ele>
        <time>2013-09-03T14:43:22.204Z</time>
      </trkpt>
      <trkpt lat="48.80536" lon="2.1068">
        <ele>117.404</ele>
        <time>2013-09-03T14:43:25.057Z</time>
      </trkpt>
      <trkpt lat="48.80524" lon="2.10674">
        <ele>117.639</ele>
        <time>2013-09-03T14:43:27.954Z</time>
      </trkpt>
      <trkpt lat="48.80515" lon="2.10669">
        <ele>118.308</ele>
        <time>2013-09-03T14:43:29.980Z</time>
      </trkpt>
      <trkpt lat="48.80503" lon="2.1066">
        <ele>119.284</ele>
        <time>2013-09-03T14:43:32.930Z</time>
      </trkpt>
      <trkpt lat="48.80492" lon="2.10652">
        <ele>120.508</ele>
        <time>2013-09-03T14:43:35.814Z</time>
      </trkpt>
      <trkpt lat="48.80481" lon="2.10646">
        <ele>121.998</ele>
        <time>2013-09-03T14:43:38.573Z</time>
      </trkpt>
      <trkpt lat="48.80469" lon="2.10638">
        <ele>123.45</ele>
        <time>2013-09-03T14:43:41.477Z</time>
      </trkpt>
      <trkpt lat="48.80458" lon="2.10631">
        <ele>124.32</ele>
        <time>2013-09-03T14:43:44.329Z</time>
      </trkpt>
      <trkpt lat="48.80449" lon="2.10626">
        <ele>124.445</ele>
        <time>2013-09-03T14:43:46.420Z</time>
      </trkpt>
      <trkpt lat="48.80438" lon="2.10619">
        <ele>124.172</ele>
        <time>2013-09-03T14:43:49.249Z</time>
      </trkpt>
      <trkpt lat="48.80427" lon="2.10612">
        <ele>123.82</ele>
        <time>2013-09-03T14:43:52.131Z</time>
      </trkpt>
      <trkpt lat="48.80415" lon="2.10606">
        <ele>123.4</ele>
        <time>2013-09-03T14:43:54.995Z</time>
      </trkpt>
      <trkpt lat="48.80404" lon="2.106">
        <ele>122.863</ele>
        <time>2013-09-03T14:43:57.829Z</time>
      </trkpt>
      <trkpt lat="48.80393" lon="2.10594">
        <ele>122.41</ele>
        <time>2013-09-03T14:44:00.654Z</time>
      </trkpt>
      <trkpt lat="48.80384" lon="2.10588">
        <ele>122.231</ele>
        <time>2013-09-03T14:44:03.170Z</time>
      </trkpt>
      <trkpt lat="48.80375" lon="2.10581">
        <ele>122.05</ele>
        <time>2013-09-03T14:44:05.859Z</time>
      </trkpt>
      <trkpt lat="48.80366" lon="2.10575">
        <ele>121.632</ele>
        <time>2013-09-03T14:44:08.563Z</time>
      </trkpt>
      <trkpt lat="48.80356" lon="2.10569">
        <ele>121.716</ele>
        <time>2013-09-03T14:44:12.170Z</time>
      </trkpt>
      <trkpt lat="48.80348" lon="2.10561">
        <ele>122.869</ele>
        <time>2013-09-03T14:44:15.582Z</time>
      </trkpt>
      <trkpt lat="48.80348" lon="2.10544">
        <ele>124.141</ele>
        <time>2013-09-03T14:44:20.235Z</time>
      </trkpt>
      <trkpt lat="48.80339" lon="2.10538">
        <ele>124.567</ele>
        <time>2013-09-03T14:44:24.379Z</time>
      </trkpt>
      <trkpt lat="48.8033" lon="2.10535">
        <ele>123.842</ele>
        <time>2013-09-03T14:44:28.217Z</time>
      </trkpt>
      <trkpt lat="48.8032" lon="2.10537">
        <ele>122.042</ele>
        <time>2013-09-03T14:44:31.800Z</time>
      </trkpt>
      <trkpt lat="48.8032" lon="2.10537">
        <ele>120.261</ele>
        <time>2013-09-03T14:44:44.800Z</time>
      </trkpt>
      <trkpt lat="48.8032" lon="2.10537">
        <ele>119.537</ele>
        <time>2013-09-03T14:44:44.900Z</time>
      </trkpt>
      <trkpt lat="48.80318" lon="2.10575">
        <ele>119.63</ele>
        <time>2013-09-03T14:45:01.869Z</time>
      </trkpt>
      <trkpt lat="48.80318" lon="2.10594">
        <ele>119.822</ele>
        <time>2013-09-03T14:45:05.320Z</time>
      </trkpt>
      <trkpt lat="48.80316" lon="2.10617">
        <ele>119.76</ele>
        <time>2013-09-03T14:45:08.957Z</time>
      </trkpt>
      <trkpt lat="48.80314" lon="2.10633">
        <ele>119.561</ele>
        <time>2013-09-03T14:45:11.201Z</time>
      </trkpt>
      <trkpt lat="48.80312" lon="2.10648">
        <ele>119.427</ele>
        <time>2013-09-03T14:45:13.211Z</time>
      </trkpt>
      <trkpt lat="48.80308" lon="2.10673">
        <ele>119.382</ele>
        <time>2013-09-03T14:45:16.391Z</time>
      </trkpt>
      <trkpt lat="48.80307" lon="2.10698">
        <ele>119.291</ele>
        <time>2013-09-03T14:45:19.466Z</time>
      </trkpt>
      <trkpt lat="48.80307" lon="2.10715">
        <ele>119.06</ele>
        <time>2013-09-03T14:45:21.451Z</time>
      </trkpt>
      <trkpt lat="48.80306" lon="2.1074">
        <ele>118.579</ele>
        <time>2013-09-03T14:45:24.436Z</time>
      </trkpt>
      <trkpt lat="48.80304" lon="2.10757">
        <ele>117.773</ele>
        <time>2013-09-03T14:45:26.344Z</time>
      </trkpt>
      <trkpt lat="48.80301" lon="2.10781">
        <ele>116.937</ele>
        <time>2013-09-03T14:45:29.203Z</time>
      </trkpt>
      <trkpt lat="48.80298" lon="2.10799">
        <ele>116.396</ele>
        <time>2013-09-03T14:45:31.248Z</time>
      </trkpt>
      <trkpt lat="48.80295" lon="2.10824">
        <ele>116.093</ele>
        <time>2013-09-03T14:45:34.215Z</time>
      </trkpt>
      <trkpt lat="48.80293" lon="2.10843">
        <ele>115.946</ele>
        <time>2013-09-03T14:45:36.420Z</time>
      </trkpt>
      <trkpt lat="48.8029" lon="2.10869">
        <ele>116.165</ele>
        <time>2013-09-03T14:45:39.588Z</time>
      </trkpt>
      <trkpt lat="48.80287" lon="2.10894">
        <ele>116.821</ele>
        <time>2013-09-03T14:45:42.680Z</time>
      </trkpt>
      <trkpt lat="48.80285" lon="2.1091">
        <ele>117.356</ele>
        <time>2013-09-03T14:45:44.698Z</time>
      </trkpt>
      <trkpt lat="48.80283" lon="2.10934">
        <ele>117.24</ele>
        <time>2013-09-03T14:45:47.714Z</time>
      </trkpt>
      <trkpt lat="48.8028" lon="2.10954">
        <ele>116.697</ele>
        <time>2013-09-03T14:45:50.322Z</time>
      </trkpt>
      <trkpt lat="48.80278" lon="2.1097">
        <ele>116.224</ele>
        <time>2013-09-03T14:45:52.329Z</time>
      </trkpt>
      <trkpt lat="48.80276" lon="2.10985">
        <ele>116.228</ele>
        <time>2013-09-03T14:45:54.326Z</time>
      </trkpt>
      <trkpt lat="48.80273" lon="2.1101">
        <ele>116.913</ele>
        <time>2013-09-03T14:45:57.436Z</time>
      </trkpt>
      <trkpt lat="48.80269" lon="2.11034">
        <ele>118.104</ele>
        <time>2013-09-03T14:46:00.420Z</time>
      </trkpt>
      <trkpt lat="48.80267" lon="2.11049">
        <ele>119.275</ele>
        <time>2013-09-03T14:46:02.302Z</time>
      </trkpt>
      <trkpt lat="48.80265" lon="2.11064">
        <ele>119.785</ele>
        <time>2013-09-03T14:46:04.165Z</time>
      </trkpt>
      <trkpt lat="48.80262" lon="2.11089">
        <ele>119.466</ele>
        <time>2013-09-03T14:46:07.260Z</time>
      </trkpt>
      <trkpt lat="48.80259" lon="2.11115">
        <ele>118.678</ele>
        <time>2013-09-03T14:46:10.522Z</time>
      </trkpt>
      <trkpt lat="48.80257" lon="2.11131">
        <ele>117.834</ele>
        <time>2013-09-03T14:46:12.593Z</time>
      </trkpt>
      <trkpt lat="48.80255" lon="2.11155">
        <ele>117.189</ele>
        <time>2013-09-03T14:46:15.600Z</time>
      </trkpt>
      <trkpt lat="48.80253" lon="2.1117">
        <ele>116.832</ele>
        <time>2013-09-03T14:46:17.575Z</time>
      </trkpt>
      <trkpt lat="48.8025" lon="2.11193">
        <ele>116.897</ele>
        <time>2013-09-03T14:46:20.628Z</time>
      </trkpt>
      <trkpt lat="48.80249" lon="2.11208">
        <ele>117.589</ele>
        <time>2013-09-03T14:46:22.645Z</time>
      </trkpt>
      <trkpt lat="48.80247" lon="2.11224">
        <ele>118.721</ele>
        <time>2013-09-03T14:46:24.759Z</time>
      </trkpt>
      <trkpt lat="48.80245" lon="2.11246">
        <ele>119.776</ele>
        <time>2013-09-03T14:46:27.775Z</time>
      </trkpt>
      <trkpt lat="48.80242" lon="2.11267">
        <ele>120.253</ele>
        <time>2013-09-03T14:46:30.666Z</time>
      </trkpt>
      <trkpt lat="48.80241" lon="2.11281">
        <ele>120.073</ele>
        <time>2013-09-03T14:46:32.537Z</time>
      </trkpt>
      <trkpt lat="48.80239" lon="2.11303">
        <ele>119.618</ele>
        <time>2013-09-03T14:46:35.579Z</time>
      </trkpt>
      <trkpt lat="48.80237" lon="2.11317">
        <ele>119.145</ele>
        <time>2013-09-03T14:46:37.480Z</time>
      </trkpt>
      <trkpt lat="48.80235" lon="2.11337">
        <ele>118.653</ele>
        <time>2013-09-03T14:46:40.303Z</time>
      </trkpt>
      <trkpt lat="48.80233" lon="2.11354">
        <ele>118.091</ele>
        <time>2013-09-03T14:46:42.659Z</time>
      </trkpt>
      <trkpt lat="48.80231" lon="2.11375">
        <ele>117.508</ele>
        <time>2013-09-03T14:46:45.690Z</time>
      </trkpt>
      <trkpt lat="48.80229" lon="2.11397">
        <ele>117.106</ele>
        <time>2013-09-03T14:46:48.793Z</time>
      </trkpt>
      <trkpt lat="48.80227" lon="2.11418">
        <ele>117.034</ele>
        <time>2013-09-03T14:46:51.650Z</time>
      </trkpt>
      <trkpt lat="48.80224" lon="2.11439">
        <ele>117.212</ele>
        <time>2013-09-03T14:46:54.682Z</time>
      </trkpt>
      <trkpt lat="48.80221" lon="2.1146">
        <ele>117.291</ele>
        <time>2013-09-03T14:46:57.761Z</time>
      </trkpt>
      <trkpt lat="48.80218" lon="2.11474">
        <ele>117.043</ele>
        <time>2013-09-03T14:46:59.817Z</time>
      </trkpt>
      <trkpt lat="48.80213" lon="2.11494">
        <ele>116.848</ele>
        <time>2013-09-03T14:47:03.022Z</time>
      </trkpt>
      <trkpt lat="48.80208" lon="2.11514">
        <ele>117.492</ele>
        <time>2013-09-03T14:47:06.050Z</time>
      </trkpt>
      <trkpt lat="48.80204" lon="2.11532">
        <ele>118.991</ele>
        <time>2013-09-03T14:47:09.123Z</time>
      </trkpt>
      <trkpt lat="48.80198" lon="2.1155">
        <ele>120.452</ele>
        <time>2013-09-03T14:47:12.162Z</time>
      </trkpt>
      <trkpt lat="48.80193" lon="2.11568">
        <ele>121.28</ele>
        <time>2013-09-03T14:47:15.448Z</time>
      </trkpt>
      <trkpt lat="48.80188" lon="2.11586">
        <ele>121.73</ele>
        <time>2013-09-03T14:47:18.607Z</time>
      </trkpt>
      <trkpt lat="48.80183" lon="2.11603">
        <ele>122.118</ele>
        <time>2013-09-03T14:47:21.587Z</time>
      </trkpt>
      <trkpt lat="48.80177" lon="2.11621">
        <ele>122.434</ele>
        <time>2013-09-03T14:47:24.651Z</time>
      </trkpt>
      <trkpt lat="48.80173" lon="2.11639">
        <ele>122.53</ele>
        <time>2013-09-03T14:47:27.505Z</time>
      </trkpt>
      <trkpt lat="48.8017" lon="2.11652">
        <ele>122.25</ele>
        <time>2013-09-03T14:47:29.446Z</time>
      </trkpt>
      <trkpt lat="48.80165" lon="2.11671">
        <ele>121.573</ele>
        <time>2013-09-03T14:47:32.309Z</time>
      </trkpt>
      <trkpt lat="48.80161" lon="2.11687">
        <ele>120.877</ele>
        <time>2013-09-03T14:47:34.554Z</time>
      </trkpt>
      <trkpt lat="48.80156" lon="2.11709">
        <ele>120.509</ele>
        <time>2013-09-03T14:47:37.726Z</time>
      </trkpt>
      <trkpt lat="48.80153" lon="2.11723">
        <ele>120.428</ele>
        <time>2013-09-03T14:47:39.693Z</time>
      </trkpt>
      <trkpt lat="48.80147" lon="2.11746">
        <ele>120.615</ele>
        <time>2013-09-03T14:47:42.998Z</time>
      </trkpt>
      <trkpt lat="48.80142" lon="2.11765">
        <ele>121.395</ele>
        <time>2013-09-03T14:47:45.766Z</time>
      </trkpt>
      <trkpt lat="48.80137" lon="2.11784">
        <ele>122.72</ele>
        <time>2013-09-03T14:47:48.393Z</time>
      </trkpt>
      <trkpt lat="48.80132" lon="2.11803">
        <ele>123.79</ele>
        <time>2013-09-03T14:47:51.096Z</time>
      </trkpt>
      <trkpt lat="48.80126" lon="2.11823">
        <ele>124.017</ele>
        <time>2013-09-03T14:47:53.841Z</time>
      </trkpt>
      <trkpt lat="48.80122" lon="2.11837">
        <ele>123.579</ele>
        <time>2013-09-03T14:47:55.730Z</time>
      </trkpt>
      <trkpt lat="48.80117" lon="2.11857">
        <ele>122.964</ele>
        <time>2013-09-03T14:47:58.596Z</time>
      </trkpt>
      <trkpt lat="48.80112" lon="2.11878">
        <ele>122.545</ele>
        <time>2013-09-03T14:48:01.625Z</time>
      </trkpt>
      <trkpt lat="48.80108" lon="2.11892">
        <ele>122.373</ele>
        <time>2013-09-03T14:48:03.700Z</time>
      </trkpt>
      <trkpt lat="48.80103" lon="2.11912">
        <ele>122.275</ele>
        <time>2013-09-03T14:48:06.838Z</time>
      </trkpt>
      <trkpt lat="48.80099" lon="2.11926">
        <ele>122.126</ele>
        <time>2013-09-03T14:48:09.172Z</time>
      </trkpt>
      <trkpt lat="48.80095" lon="2.11945">
        <ele>122.206</ele>
        <time>2013-09-03T14:48:12.696Z</time>
      </trkpt>
      <trkpt lat="48.80091" lon="2.11963">
        <ele>122.779</ele>
        <time>2013-09-03T14:48:16.119Z</time>
      </trkpt>
      <trkpt lat="48.80086" lon="2.1198">
        <ele>123.577</ele>
        <time>2013-09-03T14:48:19.285Z</time>
      </trkpt>
      <trkpt lat="48.80077" lon="2.11982">
        <ele>124.407</ele>
        <time>2013-09-03T14:48:21.559Z</time>
      </trkpt>
      <trkpt lat="48.80068" lon="2.11975">
        <ele>125.46</ele>
        <time>2013-09-03T14:48:23.954Z</time>
      </trkpt>
      <trkpt lat="48.80055" lon="2.11974">
        <ele>126.613</ele>
        <time>2013-09-03T14:48:27.078Z</time>
      </trkpt>
      <trkpt lat="48.80041" lon="2.11972">
        <ele>127.443</ele>
        <time>2013-09-03T14:48:30.373Z</time>
      </trkpt>
      <trkpt lat="48.80031" lon="2.11967">
        <ele>127.836</ele>
        <time>2013-09-03T14:48:32.731Z</time>
      </trkpt>
      <trkpt lat="48.80017" lon="2.11961">
        <ele>127.971</ele>
        <time>2013-09-03T14:48:35.968Z</time>
      </trkpt>
      <trkpt lat="48.80004" lon="2.11955">
        <ele>127.865</ele>
        <time>2013-09-03T14:48:38.704Z</time>
      </trkpt>
      <trkpt lat="48.7999" lon="2.11947">
        <ele>126.794</ele>
        <time>2013-09-03T14:48:41.593Z</time>
      </trkpt>
      <trkpt lat="48.79975" lon="2.11938">
        <ele>124.249</ele>
        <time>2013-09-03T14:48:44.848Z</time>
      </trkpt>
      <trkpt lat="48.79961" lon="2.11927">
        <ele>121.335</ele>
        <time>2013-09-03T14:48:48.026Z</time>
      </trkpt>
      <trkpt lat="48.7995" lon="2.1192">
        <ele>119.55</ele>
        <time>2013-09-03T14:48:50.271Z</time>
      </trkpt>
      <trkpt lat="48.79935" lon="2.11911">
        <ele>119.129</ele>
        <time>2013-09-03T14:48:53.519Z</time>
      </trkpt>
      <trkpt lat="48.79926" lon="2.11906">
        <ele>119.516</ele>
        <time>2013-09-03T14:48:55.511Z</time>
      </trkpt>
      <trkpt lat="48.79911" lon="2.11897">
        <ele>120.064</ele>
        <time>2013-09-03T14:48:58.638Z</time>
      </trkpt>
      <trkpt lat="48.79898" lon="2.11889">
        <ele>120.257</ele>
        <time>2013-09-03T14:49:01.407Z</time>
      </trkpt>
      <trkpt lat="48.79885" lon="2.11882">
        <ele>120.001</ele>
        <time>2013-09-03T14:49:04.128Z</time>
      </trkpt>
      <trkpt lat="48.79875" lon="2.11876">
        <ele>119.745</ele>
        <time>2013-09-03T14:49:06.186Z</time>
      </trkpt>
      <trkpt lat="48.7986" lon="2.11868">
        <ele>119.948</ele>
        <time>2013-09-03T14:49:09.405Z</time>
      </trkpt>
      <trkpt lat="48.7985" lon="2.11862">
        <ele>120.65</ele>
        <time>2013-09-03T14:49:11.404Z</time>
      </trkpt>
      <trkpt lat="48.79836" lon="2.11852">
        <ele>121.549</ele>
        <time>2013-09-03T14:49:14.460Z</time>
      </trkpt>
      <trkpt lat="48.79826" lon="2.11846">
        <ele>122.206</ele>
        <time>2013-09-03T14:49:16.516Z</time>
      </trkpt>
      <trkpt lat="48.79813" lon="2.11835">
        <ele>122.55</ele>
        <time>2013-09-03T14:49:19.300Z</time>
      </trkpt>
      <trkpt lat="48.79804" lon="2.11829">
        <ele>122.862</ele>
        <time>2013-09-03T14:49:21.294Z</time>
      </trkpt>
      <trkpt lat="48.79789" lon="2.11819">
        <ele>123.382</ele>
        <time>2013-09-03T14:49:24.560Z</time>
      </trkpt>
      <trkpt lat="48.79779" lon="2.11814">
        <ele>124.088</ele>
        <time>2013-09-03T14:49:26.578Z</time>
      </trkpt>
      <trkpt lat="48.79765" lon="2.11806">
        <ele>124.52</ele>
        <time>2013-09-03T14:49:29.665Z</time>
      </trkpt>
      <trkpt lat="48.79756" lon="2.11801">
        <ele>123.884</ele>
        <time>2013-09-03T14:49:31.482Z</time>
      </trkpt>
      <trkpt lat="48.79743" lon="2.11793">
        <ele>122.234</ele>
        <time>2013-09-03T14:49:34.380Z</time>
      </trkpt>
      <trkpt lat="48.7973" lon="2.11785">
        <ele>120.786</ele>
        <time>2013-09-03T14:49:37.142Z</time>
      </trkpt>
      <trkpt lat="48.79717" lon="2.11777">
        <ele>120.402</ele>
        <time>2013-09-03T14:49:39.873Z</time>
      </trkpt>
      <trkpt lat="48.79708" lon="2.11772">
        <ele>120.722</ele>
        <time>2013-09-03T14:49:41.826Z</time>
      </trkpt>
      <trkpt lat="48.79696" lon="2.11764">
        <ele>121.125</ele>
        <time>2013-09-03T14:49:44.606Z</time>
      </trkpt>
      <trkpt lat="48.79687" lon="2.1176">
        <ele>121.184</ele>
        <time>2013-09-03T14:49:46.527Z</time>
      </trkpt>
      <trkpt lat="48.79674" lon="2.11752">
        <ele>120.83</ele>
        <time>2013-09-03T14:49:49.559Z</time>
      </trkpt>
      <trkpt lat="48.79662" lon="2.11744">
        <ele>120.429</ele>
        <time>2013-09-03T14:49:52.439Z</time>
      </trkpt>
      <trkpt lat="48.7965" lon="2.11736">
        <ele>120.317</ele>
        <time>2013-09-03T14:49:55.257Z</time>
      </trkpt>
      <trkpt lat="48.79637" lon="2.11729">
        <ele>120.402</ele>
        <time>2013-09-03T14:49:58.115Z</time>
      </trkpt>
      <trkpt lat="48.79625" lon="2.11721">
        <ele>120.367</ele>
        <time>2013-09-03T14:50:01.094Z</time>
      </trkpt>
      <trkpt lat="48.79613" lon="2.11714">
        <ele>120.037</ele>
        <time>2013-09-03T14:50:04.111Z</time>
      </trkpt>
      <trkpt lat="48.79599" lon="2.11705">
        <ele>119.564</ele>
        <time>2013-09-03T14:50:07.647Z</time>
      </trkpt>
      <trkpt lat="48.79587" lon="2.11696">
        <ele>119.203</ele>
        <time>2013-09-03T14:50:10.911Z</time>
      </trkpt>
      <trkpt lat="48.79578" lon="2.11691">
        <ele>119.343</ele>
        <time>2013-09-03T14:50:13.523Z</time>
      </trkpt>
      <trkpt lat="48.79567" lon="2.11684">
        <ele>120.317</ele>
        <time>2013-09-03T14:50:16.543Z</time>
      </trkpt>
      <trkpt lat="48.79557" lon="2.11679">
        <ele>121.711</ele>
        <time>2013-09-03T14:50:19.204Z</time>
      </trkpt>
      <trkpt lat="48.79547" lon="2.11679">
        <ele>122.834</ele>
        <time>2013-09-03T14:50:21.846Z</time>
      </trkpt>
      <trkpt lat="48.79537" lon="2.11689">
        <ele>123.72</ele>
        <time>2013-09-03T14:50:25.177Z</time>
      </trkpt>
      <trkpt lat="48.79532" lon="2.11704">
        <ele>124.57</ele>
        <time>2013-09-03T14:50:28.238Z</time>
      </trkpt>
      <trkpt lat="48.79527" lon="2.11717">
        <ele>125.014</ele>
        <time>2013-09-03T14:50:31.165Z</time>
      </trkpt>
      <trkpt lat="48.7952" lon="2.11729">
        <ele>124.792</ele>
        <time>2013-09-03T14:50:34.231Z</time>
      </trkpt>
      <trkpt lat="48.79514" lon="2.11741">
        <ele>124.31</ele>
        <time>2013-09-03T14:50:37.374Z</time>
      </trkpt>
      <trkpt lat="48.79508" lon="2.11753">
        <ele>124.025</ele>
        <time>2013-09-03T14:50:40.479Z</time>
      </trkpt>
      <trkpt lat="48.79501" lon="2.11766">
        <ele>123.974</ele>
        <time>2013-09-03T14:50:44.260Z</time>
      </trkpt>
      <trkpt lat="48.79494" lon="2.1178">
        <ele>123.763</ele>
        <time>2013-09-03T14:50:48.007Z</time>
      </trkpt>
      <trkpt lat="48.79488" lon="2.11794">
        <ele>123.15</ele>
        <time>2013-09-03T14:50:51.730Z</time>
      </trkpt>
      <trkpt lat="48.79481" lon="2.11807">
        <ele>122.598</ele>
        <time>2013-09-03T14:50:55.401Z</time>
      </trkpt>
      <trkpt lat="48.79474" lon="2.11822">
        <ele>122.816</ele>
        <time>2013-09-03T14:50:59.442Z</time>
      </trkpt>
      <trkpt lat="48.79466" lon="2.11834">
        <ele>123.84</ele>
        <time>2013-09-03T14:51:03.430Z</time>
      </trkpt>
      <trkpt lat="48.7946" lon="2.11847">
        <ele>125.238</ele>
        <time>2013-09-03T14:51:07.306Z</time>
      </trkpt>
      <trkpt lat="48.79453" lon="2.1186">
        <ele>126.581</ele>
        <time>2013-09-03T14:51:11.108Z</time>
      </trkpt>
      <trkpt lat="48.79446" lon="2.11873">
        <ele>127.525</ele>
        <time>2013-09-03T14:51:15.114Z</time>
      </trkpt>
      <trkpt lat="48.7944" lon="2.11886">
        <ele>128.282</ele>
        <time>2013-09-03T14:51:18.927Z</time>
      </trkpt>
      <trkpt lat="48.79434" lon="2.11898">
        <ele>129.288</ele>
        <time>2013-09-03T14:51:22.686Z</time>
      </trkpt>
      <trkpt lat="48.79428" lon="2.1191">
        <ele>130.24</ele>
        <time>2013-09-03T14:51:26.482Z</time>
      </trkpt>
      <trkpt lat="48.79422" lon="2.11923">
        <ele>130.809</ele>
        <time>2013-09-03T14:51:30.409Z</time>
      </trkpt>
      <trkpt lat="48.79415" lon="2.11935">
        <ele>131.335</ele>
        <time>2013-09-03T14:51:34.296Z</time>
      </trkpt>
      <trkpt lat="48.79409" lon="2.11948">
        <ele>131.969</ele>
        <time>2013-09-03T14:51:38.216Z</time>
      </trkpt>
      <trkpt lat="48.79403" lon="2.1196">
        <ele>132.492</ele>
        <time>2013-09-03T14:51:42.328Z</time>
      </trkpt>
      <trkpt lat="48.79397" lon="2.11971">
        <ele>132.933</ele>
        <time>2013-09-03T14:51:46.294Z</time>
      </trkpt>
      <trkpt lat="48.7939" lon="2.11982">
        <ele>133.54</ele>
        <time>2013-09-03T14:51:50.546Z</time>
      </trkpt>
      <trkpt lat="48.79383" lon="2.11995">
        <ele>134.252</ele>
        <time>2013-09-03T14:51:55.339Z</time>
      </trkpt>
      <trkpt lat="48.79375" lon="2.12006">
        <ele>135.118</ele>
        <time>2013-09-03T14:51:59.898Z</time>
      </trkpt>
      <trkpt lat="48.79356" lon="2.12025">
        <ele>141.318</ele>
        <time>2013-09-03T14:59:20.324Z</time>
      </trkpt>
      <trkpt lat="48.79358" lon="2.1204">
        <ele>141.397</ele>
        <time>2013-09-03T14:59:26.641Z</time>
      </trkpt>
      <trkpt lat="48.79368" lon="2.12048">
        <ele>141.171</ele>
        <time>2013-09-03T14:59:30.681Z</time>
      </trkpt>
      <trkpt lat="48.79376" lon="2.12054">
        <ele>140.959</ele>
        <time>2013-09-03T14:59:33.146Z</time>
      </trkpt>
      <trkpt lat="48.79393" lon="2.12067">
        <ele>141.114</ele>
        <time>2013-09-03T14:59:37.936Z</time>
      </trkpt>
      <trkpt lat="48.79405" lon="2.12076">
        <ele>141.402</ele>
        <time>2013-09-03T14:59:41.232Z</time>
      </trkpt>
      <trkpt lat="48.79416" lon="2.12084">
        <ele>141.431</ele>
        <time>2013-09-03T14:59:44.156Z</time>
      </trkpt>
      <trkpt lat="48.79423" lon="2.12094">
        <ele>140.758</ele>
        <time>2013-09-03T14:59:46.356Z</time>
      </trkpt>
      <trkpt lat="48.79418" lon="2.12107">
        <ele>139.385</ele>
        <time>2013-09-03T14:59:48.643Z</time>
      </trkpt>
      <trkpt lat="48.79412" lon="2.12125">
        <ele>138.235</ele>
        <time>2013-09-03T14:59:51.668Z</time>
      </trkpt>
      <trkpt lat="48.79407" lon="2.12146">
        <ele>137.963</ele>
        <time>2013-09-03T14:59:54.889Z</time>
      </trkpt>
      <trkpt lat="48.79402" lon="2.12166">
        <ele>138.219</ele>
        <time>2013-09-03T14:59:57.877Z</time>
      </trkpt>
      <trkpt lat="48.79397" lon="2.12184">
        <ele>138.51</ele>
        <time>2013-09-03T15:00:00.467Z</time>
      </trkpt>
      <trkpt lat="48.79391" lon="2.12203">
        <ele>138.248</ele>
        <time>2013-09-03T15:00:03.197Z</time>
      </trkpt>
      <trkpt lat="48.79385" lon="2.12223">
        <ele>136.97</ele>
        <time>2013-09-03T15:00:06.022Z</time>
      </trkpt>
      <trkpt lat="48.79381" lon="2.12239">
        <ele>135.199</ele>
        <time>2013-09-03T15:00:08.026Z</time>
      </trkpt>
      <trkpt lat="48.79375" lon="2.12259">
        <ele>133.917</ele>
        <time>2013-09-03T15:00:10.680Z</time>
      </trkpt>
      <trkpt lat="48.79371" lon="2.12275">
        <ele>133.264</ele>
        <time>2013-09-03T15:00:12.702Z</time>
      </trkpt>
      <trkpt lat="48.79364" lon="2.12299">
        <ele>132.88</ele>
        <time>2013-09-03T15:00:15.883Z</time>
      </trkpt>
      <trkpt lat="48.79358" lon="2.12323">
        <ele>132.727</ele>
        <time>2013-09-03T15:00:19.047Z</time>
      </trkpt>
      <trkpt lat="48.79354" lon="2.12338">
        <ele>132.874</ele>
        <time>2013-09-03T15:00:21.306Z</time>
      </trkpt>
      <trkpt lat="48.79349" lon="2.12354">
        <ele>133.004</ele>
        <time>2013-09-03T15:00:23.655Z</time>
      </trkpt>
      <trkpt lat="48.79342" lon="2.12375">
        <ele>132.866</ele>
        <time>2013-09-03T15:00:26.752Z</time>
      </trkpt>
      <trkpt lat="48.79344" lon="2.12393">
        <ele>132.726</ele>
        <time>2013-09-03T15:00:29.175Z</time>
      </trkpt>
      <trkpt lat="48.79355" lon="2.12404">
        <ele>132.884</ele>
        <time>2013-09-03T15:00:31.799Z</time>
      </trkpt>
      <trkpt lat="48.79369" lon="2.12413">
        <ele>133.226</ele>
        <time>2013-09-03T15:00:34.956Z</time>
      </trkpt>
      <trkpt lat="48.79384" lon="2.12423">
        <ele>133.514</ele>
        <time>2013-09-03T15:00:38.335Z</time>
      </trkpt>
      <trkpt lat="48.79395" lon="2.12436">
        <ele>133.172</ele>
        <time>2013-09-03T15:00:41.163Z</time>
      </trkpt>
      <trkpt lat="48.79393" lon="2.12455">
        <ele>131.852</ele>
        <time>2013-09-03T15:00:43.818Z</time>
      </trkpt>
      <trkpt lat="48.79387" lon="2.12474">
        <ele>130.327</ele>
        <time>2013-09-03T15:00:46.694Z</time>
      </trkpt>
      <trkpt lat="48.79381" lon="2.12494">
        <ele>129.591</ele>
        <time>2013-09-03T15:00:49.736Z</time>
      </trkpt>
      <trkpt lat="48.79374" lon="2.12513">
        <ele>129.745</ele>
        <time>2013-09-03T15:00:52.712Z</time>
      </trkpt>
      <trkpt lat="48.79368" lon="2.1253">
        <ele>130.574</ele>
        <time>2013-09-03T15:00:55.556Z</time>
      </trkpt>
      <trkpt lat="48.79365" lon="2.12543">
        <ele>131.784</ele>
        <time>2013-09-03T15:00:57.594Z</time>
      </trkpt>
      <trkpt lat="48.79359" lon="2.1256">
        <ele>132.805</ele>
        <time>2013-09-03T15:01:00.494Z</time>
      </trkpt>
      <trkpt lat="48.79354" lon="2.12578">
        <ele>133.252</ele>
        <time>2013-09-03T15:01:03.326Z</time>
      </trkpt>
      <trkpt lat="48.79349" lon="2.12595">
        <ele>133.338</ele>
        <time>2013-09-03T15:01:06.219Z</time>
      </trkpt>
      <trkpt lat="48.79345" lon="2.12613">
        <ele>133.7</ele>
        <time>2013-09-03T15:01:09.192Z</time>
      </trkpt>
      <trkpt lat="48.7934" lon="2.12629">
        <ele>134.646</ele>
        <time>2013-09-03T15:01:11.985Z</time>
      </trkpt>
      <trkpt lat="48.79335" lon="2.12646">
        <ele>135.559</ele>
        <time>2013-09-03T15:01:14.926Z</time>
      </trkpt>
      <trkpt lat="48.7933" lon="2.12661">
        <ele>135.799</ele>
        <time>2013-09-03T15:01:17.608Z</time>
      </trkpt>
      <trkpt lat="48.79323" lon="2.12676">
        <ele>135.543</ele>
        <time>2013-09-03T15:01:20.588Z</time>
      </trkpt>
      <trkpt lat="48.79318" lon="2.12692">
        <ele>135.186</ele>
        <time>2013-09-03T15:01:23.649Z</time>
      </trkpt>
      <trkpt lat="48.79315" lon="2.1271">
        <ele>135.316</ele>
        <time>2013-09-03T15:01:26.734Z</time>
      </trkpt>
      <trkpt lat="48.79312" lon="2.12724">
        <ele>136.416</ele>
        <time>2013-09-03T15:01:29.449Z</time>
      </trkpt>
      <trkpt lat="48.79306" lon="2.12738">
        <ele>138.145</ele>
        <time>2013-09-03T15:01:32.213Z</time>
      </trkpt>
      <trkpt lat="48.793" lon="2.12752">
        <ele>139.703</ele>
        <time>2013-09-03T15:01:35.155Z</time>
      </trkpt>
      <trkpt lat="48.79295" lon="2.12767">
        <ele>140.865</ele>
        <time>2013-09-03T15:01:38.107Z</time>
      </trkpt>
      <trkpt lat="48.79291" lon="2.12782">
        <ele>141.763</ele>
        <time>2013-09-03T15:01:41.056Z</time>
      </trkpt>
      <trkpt lat="48.79286" lon="2.12797">
        <ele>142.334</ele>
        <time>2013-09-03T15:01:44.171Z</time>
      </trkpt>
      <trkpt lat="48.79282" lon="2.12813">
        <ele>142.787</ele>
        <time>2013-09-03T15:01:47.344Z</time>
      </trkpt>
      <trkpt lat="48.79279" lon="2.12827">
        <ele>143.638</ele>
        <time>2013-09-03T15:01:50.453Z</time>
      </trkpt>
      <trkpt lat="48.79278" lon="2.1284">
        <ele>144.628</ele>
        <time>2013-09-03T15:01:53.712Z</time>
      </trkpt>
      <trkpt lat="48.79271" lon="2.12851">
        <ele>145.121</ele>
        <time>2013-09-03T15:01:57.102Z</time>
      </trkpt>
      <trkpt lat="48.79262" lon="2.12851">
        <ele>145.144</ele>
        <time>2013-09-03T15:02:00.534Z</time>
      </trkpt>
      <trkpt lat="48.79252" lon="2.12848">
        <ele>145.231</ele>
        <time>2013-09-03T15:02:04.467Z</time>
      </trkpt>
      <trkpt lat="48.79242" lon="2.12844">
        <ele>145.756</ele>
        <time>2013-09-03T15:02:08.515Z</time>
      </trkpt>
      <trkpt lat="48.79234" lon="2.12835">
        <ele>146.554</ele>
        <time>2013-09-03T15:02:12.565Z</time>
      </trkpt>
      <trkpt lat="48.79228" lon="2.12823">
        <ele>147.238</ele>
        <time>2013-09-03T15:02:16.656Z</time>
      </trkpt>
      <trkpt lat="48.79224" lon="2.12808">
        <ele>147.69</ele>
        <time>2013-09-03T15:02:21.036Z</time>
      </trkpt>
      <trkpt lat="48.79222" lon="2.12795">
        <ele>148.034</ele>
        <time>2013-09-03T15:02:24.739Z</time>
      </trkpt>
      <trkpt lat="48.79218" lon="2.12779">
        <ele>148.382</ele>
        <time>2013-09-03T15:02:29.107Z</time>
      </trkpt>
      <trkpt lat="48.79215" lon="2.12764">
        <ele>148.767</ele>
        <time>2013-09-03T15:02:33.115Z</time>
      </trkpt>
      <trkpt lat="48.7921" lon="2.1275">
        <ele>149.38</ele>
        <time>2013-09-03T15:02:37.103Z</time>
      </trkpt>
      <trkpt lat="48.79205" lon="2.12736">
        <ele>150.263</ele>
        <time>2013-09-03T15:02:41.201Z</time>
      </trkpt>
      <trkpt lat="48.79202" lon="2.12723">
        <ele>150.984</ele>
        <time>2013-09-03T15:02:44.870Z</time>
      </trkpt>
      <trkpt lat="48.79198" lon="2.12709">
        <ele>151.358</ele>
        <time>2013-09-03T15:02:48.452Z</time>
      </trkpt>
      <trkpt lat="48.79195" lon="2.12694">
        <ele>151.72</ele>
        <time>2013-09-03T15:02:52.385Z</time>
      </trkpt>
      <trkpt lat="48.79192" lon="2.12679">
        <ele>152.299</ele>
        <time>2013-09-03T15:02:56.336Z</time>
      </trkpt>
      <trkpt lat="48.79188" lon="2.12664">
        <ele>153.039</ele>
        <time>2013-09-03T15:03:00.259Z</time>
      </trkpt>
      <trkpt lat="48.79185" lon="2.12649">
        <ele>153.989</ele>
        <time>2013-09-03T15:03:04.208Z</time>
      </trkpt>
      <trkpt lat="48.79182" lon="2.12632">
        <ele>155.28</ele>
        <time>2013-09-03T15:03:08.370Z</time>
      </trkpt>
      <trkpt lat="48.7918" lon="2.12616">
        <ele>156.598</ele>
        <time>2013-09-03T15:03:12.589Z</time>
      </trkpt>
      <trkpt lat="48.79177" lon="2.12602">
        <ele>157.42</ele>
        <time>2013-09-03T15:03:16.427Z</time>
      </trkpt>
      <trkpt lat="48.79175" lon="2.12589">
        <ele>157.818</ele>
        <time>2013-09-03T15:03:20.002Z</time>
      </trkpt>
      <trkpt lat="48.79172" lon="2.12573">
        <ele>158.184</ele>
        <time>2013-09-03T15:03:24.231Z</time>
      </trkpt>
      <trkpt lat="48.7917" lon="2.12557">
        <ele>158.653</ele>
        <time>2013-09-03T15:03:28.278Z</time>
      </trkpt>
      <trkpt lat="48.79167" lon="2.12542">
        <ele>159.254</ele>
        <time>2013-09-03T15:03:32.143Z</time>
      </trkpt>
      <trkpt lat="48.79165" lon="2.12527">
        <ele>159.893</ele>
        <time>2013-09-03T15:03:36.137Z</time>
      </trkpt>
      <trkpt lat="48.79161" lon="2.12513">
        <ele>160.306</ele>
        <time>2013-09-03T15:03:39.967Z</time>
      </trkpt>
      <trkpt lat="48.79157" lon="2.12498">
        <ele>160.728</ele>
        <time>2013-09-03T15:03:44.071Z</time>
      </trkpt>
      <trkpt lat="48.79153" lon="2.12483">
        <ele>161.591</ele>
        <time>2013-09-03T15:03:48.228Z</time>
      </trkpt>
      <trkpt lat="48.79148" lon="2.12469">
        <ele>162.825</ele>
        <time>2013-09-03T15:03:52.362Z</time>
      </trkpt>
      <trkpt lat="48.79141" lon="2.12455">
        <ele>163.99</ele>
        <time>2013-09-03T15:03:56.970Z</time>
      </trkpt>
      <trkpt lat="48.79135" lon="2.12443">
        <ele>164.872</ele>
        <time>2013-09-03T15:04:00.903Z</time>
      </trkpt>
      <trkpt lat="48.79127" lon="2.12431">
        <ele>165.632</ele>
        <time>2013-09-03T15:04:05.375Z</time>
      </trkpt>
      <trkpt lat="48.79119" lon="2.12421">
        <ele>166.383</ele>
        <time>2013-09-03T15:04:09.583Z</time>
      </trkpt>
      <trkpt lat="48.7911" lon="2.12414">
        <ele>167.118</ele>
        <time>2013-09-03T15:04:13.332Z</time>
      </trkpt>
      <trkpt lat="48.791" lon="2.12408">
        <ele>167.865</ele>
        <time>2013-09-03T15:04:17.562Z</time>
      </trkpt>
      <trkpt lat="48.79088" lon="2.12403">
        <ele>168.431</ele>
        <time>2013-09-03T15:04:21.915Z</time>
      </trkpt>
      <trkpt lat="48.79079" lon="2.12401">
        <ele>168.758</ele>
        <time>2013-09-03T15:04:25.040Z</time>
      </trkpt>
      <trkpt lat="48.79067" lon="2.124">
        <ele>169.056</ele>
        <time>2013-09-03T15:04:29.009Z</time>
      </trkpt>
      <trkpt lat="48.79057" lon="2.12402">
        <ele>169.517</ele>
        <time>2013-09-03T15:04:32.134Z</time>
      </trkpt>
      <trkpt lat="48.79047" lon="2.12406">
        <ele>170.504</ele>
        <time>2013-09-03T15:04:35.241Z</time>
      </trkpt>
      <trkpt lat="48.79038" lon="2.12412">
        <ele>172.164</ele>
        <time>2013-09-03T15:04:38.299Z</time>
      </trkpt>
      <trkpt lat="48.79028" lon="2.12419">
        <ele>173.883</ele>
        <time>2013-09-03T15:04:41.208Z</time>
      </trkpt>
      <trkpt lat="48.79018" lon="2.12429">
        <ele>174.89</ele>
        <time>2013-09-03T15:04:44.293Z</time>
      </trkpt>
      <trkpt lat="48.79008" lon="2.1244">
        <ele>175.083</ele>
        <time>2013-09-03T15:04:47.463Z</time>
      </trkpt>
      <trkpt lat="48.78998" lon="2.12451">
        <ele>174.963</ele>
        <time>2013-09-03T15:04:50.545Z</time>
      </trkpt>
      <trkpt lat="48.78989" lon="2.12461">
        <ele>174.932</ele>
        <time>2013-09-03T15:04:53.303Z</time>
      </trkpt>
      <trkpt lat="48.7898" lon="2.12472">
        <ele>174.69</ele>
        <time>2013-09-03T15:04:56.128Z</time>
      </trkpt>
      <trkpt lat="48.7897" lon="2.12482">
        <ele>173.355</ele>
        <time>2013-09-03T15:04:58.964Z</time>
      </trkpt>
      <trkpt lat="48.78959" lon="2.12495">
        <ele>170.886</ele>
        <time>2013-09-03T15:05:02.214Z</time>
      </trkpt>
      <trkpt lat="48.7895" lon="2.12505">
        <ele>168.556</ele>
        <time>2013-09-03T15:05:04.707Z</time>
      </trkpt>
      <trkpt lat="48.7894" lon="2.12518">
        <ele>167.696</ele>
        <time>2013-09-03T15:05:07.797Z</time>
      </trkpt>
      <trkpt lat="48.7893" lon="2.12529">
        <ele>168.684</ele>
        <time>2013-09-03T15:05:10.613Z</time>
      </trkpt>
      <trkpt lat="48.78921" lon="2.12541">
        <ele>170.664</ele>
        <time>2013-09-03T15:05:13.376Z</time>
      </trkpt>
      <trkpt lat="48.78912" lon="2.12556">
        <ele>172.245</ele>
        <time>2013-09-03T15:05:16.363Z</time>
      </trkpt>
      <trkpt lat="48.78903" lon="2.1257">
        <ele>172.927</ele>
        <time>2013-09-03T15:05:19.216Z</time>
      </trkpt>
      <trkpt lat="48.78895" lon="2.12586">
        <ele>173.002</ele>
        <time>2013-09-03T15:05:22.152Z</time>
      </trkpt>
      <trkpt lat="48.78887" lon="2.12603">
        <ele>172.783</ele>
        <time>2013-09-03T15:05:25.088Z</time>
      </trkpt>
      <trkpt lat="48.78882" lon="2.12614">
        <ele>172.275</ele>
        <time>2013-09-03T15:05:27.028Z</time>
      </trkpt>
      <trkpt lat="48.78876" lon="2.12633">
        <ele>171.492</ele>
        <time>2013-09-03T15:05:29.919Z</time>
      </trkpt>
      <trkpt lat="48.78873" lon="2.12647">
        <ele>171.073</ele>
        <time>2013-09-03T15:05:31.935Z</time>
      </trkpt>
      <trkpt lat="48.78868" lon="2.12667">
        <ele>171.483</ele>
        <time>2013-09-03T15:05:34.706Z</time>
      </trkpt>
      <trkpt lat="48.78864" lon="2.12689">
        <ele>172.134</ele>
        <time>2013-09-03T15:05:37.568Z</time>
      </trkpt>
      <trkpt lat="48.7886" lon="2.12715">
        <ele>172.42</ele>
        <time>2013-09-03T15:05:40.663Z</time>
      </trkpt>
      <trkpt lat="48.78858" lon="2.12732">
        <ele>172.403</ele>
        <time>2013-09-03T15:05:42.547Z</time>
      </trkpt>
      <trkpt lat="48.78855" lon="2.12759">
        <ele>172.169</ele>
        <time>2013-09-03T15:05:45.569Z</time>
      </trkpt>
      <trkpt lat="48.78854" lon="2.12789">
        <ele>171.665</ele>
        <time>2013-09-03T15:05:48.705Z</time>
      </trkpt>
      <trkpt lat="48.78852" lon="2.12807">
        <ele>171.002</ele>
        <time>2013-09-03T15:05:50.653Z</time>
      </trkpt>
      <trkpt lat="48.7885" lon="2.12826">
        <ele>170.471</ele>
        <time>2013-09-03T15:05:52.696Z</time>
      </trkpt>
      <trkpt lat="48.78849" lon="2.12856">
        <ele>170.208</ele>
        <time>2013-09-03T15:05:55.772Z</time>
      </trkpt>
      <trkpt lat="48.78848" lon="2.12884">
        <ele>170.112</ele>
        <time>2013-09-03T15:05:58.723Z</time>
      </trkpt>
      <trkpt lat="48.78846" lon="2.12915">
        <ele>169.889</ele>
        <time>2013-09-03T15:06:01.875Z</time>
      </trkpt>
      <trkpt lat="48.78845" lon="2.12943">
        <ele>169.351</ele>
        <time>2013-09-03T15:06:04.863Z</time>
      </trkpt>
      <trkpt lat="48.78845" lon="2.12962">
        <ele>168.563</ele>
        <time>2013-09-03T15:06:06.785Z</time>
      </trkpt>
      <trkpt lat="48.78844" lon="2.12981">
        <ele>167.545</ele>
        <time>2013-09-03T15:06:08.828Z</time>
      </trkpt>
      <trkpt lat="48.78843" lon="2.13012">
        <ele>166.395</ele>
        <time>2013-09-03T15:06:12.110Z</time>
      </trkpt>
      <trkpt lat="48.7884" lon="2.1304">
        <ele>165.554</ele>
        <time>2013-09-03T15:06:15.070Z</time>
      </trkpt>
      <trkpt lat="48.78837" lon="2.13056">
        <ele>165.236</ele>
        <time>2013-09-03T15:06:16.646Z</time>
      </trkpt>
      <trkpt lat="48.78832" lon="2.13084">
        <ele>165.12</ele>
        <time>2013-09-03T15:06:19.281Z</time>
      </trkpt>
      <trkpt lat="48.78828" lon="2.13105">
        <ele>164.908</ele>
        <time>2013-09-03T15:06:21.206Z</time>
      </trkpt>
      <trkpt lat="48.78821" lon="2.13138">
        <ele>164.56</ele>
        <time>2013-09-03T15:06:24.537Z</time>
      </trkpt>
      <trkpt lat="48.78815" lon="2.1316">
        <ele>164.076</ele>
        <time>2013-09-03T15:06:26.831Z</time>
      </trkpt>
      <trkpt lat="48.7881" lon="2.13181">
        <ele>163.419</ele>
        <time>2013-09-03T15:06:28.986Z</time>
      </trkpt>
      <trkpt lat="48.78803" lon="2.13209">
        <ele>162.467</ele>
        <time>2013-09-03T15:06:32.360Z</time>
      </trkpt>
      <trkpt lat="48.78795" lon="2.13237">
        <ele>160.881</ele>
        <time>2013-09-03T15:06:38.203Z</time>
      </trkpt>
      <trkpt lat="48.78788" lon="2.13256">
        <ele>158.581</ele>
        <time>2013-09-03T15:06:43.275Z</time>
      </trkpt>
      <trkpt lat="48.78781" lon="2.13273">
        <ele>155.882</ele>
        <time>2013-09-03T15:06:46.744Z</time>
      </trkpt>
      <trkpt lat="48.78777" lon="2.13288">
        <ele>153.209</ele>
        <time>2013-09-03T15:06:49.351Z</time>
      </trkpt>
      <trkpt lat="48.78771" lon="2.13302">
        <ele>151.193</ele>
        <time>2013-09-03T15:06:51.481Z</time>
      </trkpt>
      <trkpt lat="48.78766" lon="2.13315">
        <ele>150.308</ele>
        <time>2013-09-03T15:06:53.452Z</time>
      </trkpt>
      <trkpt lat="48.78757" lon="2.13316">
        <ele>150.657</ele>
        <time>2013-09-03T15:06:55.057Z</time>
      </trkpt>
      <trkpt lat="48.78746" lon="2.13314">
        <ele>152.045</ele>
        <time>2013-09-03T15:06:56.785Z</time>
      </trkpt>
      <trkpt lat="48.78731" lon="2.13311">
        <ele>153.615</ele>
        <time>2013-09-03T15:06:59.508Z</time>
      </trkpt>
      <trkpt lat="48.7872" lon="2.13309">
        <ele>154.466</ele>
        <time>2013-09-03T15:07:01.660Z</time>
      </trkpt>
      <trkpt lat="48.78703" lon="2.13307">
        <ele>154.437</ele>
        <time>2013-09-03T15:07:05.833Z</time>
      </trkpt>
      <trkpt lat="48.78692" lon="2.13304">
        <ele>153.415</ele>
        <time>2013-09-03T15:07:08.363Z</time>
      </trkpt>
      <trkpt lat="48.7868" lon="2.13296">
        <ele>151.59</ele>
        <time>2013-09-03T15:07:11.002Z</time>
      </trkpt>
      <trkpt lat="48.78668" lon="2.1329">
        <ele>149.626</ele>
        <time>2013-09-03T15:07:13.626Z</time>
      </trkpt>
      <trkpt lat="48.78655" lon="2.13285">
        <ele>148.047</ele>
        <time>2013-09-03T15:07:16.166Z</time>
      </trkpt>
      <trkpt lat="48.7864" lon="2.13281">
        <ele>147.112</ele>
        <time>2013-09-03T15:07:19.190Z</time>
      </trkpt>
      <trkpt lat="48.78629" lon="2.1328">
        <ele>146.827</ele>
        <time>2013-09-03T15:07:21.186Z</time>
      </trkpt>
      <trkpt lat="48.78615" lon="2.13277">
        <ele>146.187</ele>
        <time>2013-09-03T15:07:23.948Z</time>
      </trkpt>
      <trkpt lat="48.786" lon="2.13275">
        <ele>144.539</ele>
        <time>2013-09-03T15:07:26.854Z</time>
      </trkpt>
      <trkpt lat="48.78584" lon="2.13273">
        <ele>143.361</ele>
        <time>2013-09-03T15:07:29.734Z</time>
      </trkpt>
      <trkpt lat="48.78574" lon="2.13273">
        <ele>143.996</ele>
        <time>2013-09-03T15:07:31.762Z</time>
      </trkpt>
      <trkpt lat="48.78562" lon="2.13274">
        <ele>145.486</ele>
        <time>2013-09-03T15:07:33.999Z</time>
      </trkpt>
      <trkpt lat="48.78547" lon="2.13275">
        <ele>146.597</ele>
        <time>2013-09-03T15:07:37.054Z</time>
      </trkpt>
      <trkpt lat="48.78532" lon="2.13272">
        <ele>147.087</ele>
        <time>2013-09-03T15:07:40.100Z</time>
      </trkpt>
      <trkpt lat="48.78517" lon="2.13269">
        <ele>147.305</ele>
        <time>2013-09-03T15:07:43.316Z</time>
      </trkpt>
      <trkpt lat="48.78503" lon="2.13266">
        <ele>147.683</ele>
        <time>2013-09-03T15:07:45.917Z</time>
      </trkpt>
      <trkpt lat="48.78491" lon="2.13264">
        <ele>148.426</ele>
        <time>2013-09-03T15:07:48.242Z</time>
      </trkpt>
      <trkpt lat="48.78481" lon="2.13263">
        <ele>149.417</ele>
        <time>2013-09-03T15:07:50.153Z</time>
      </trkpt>
      <trkpt lat="48.78463" lon="2.13258">
        <ele>150.078</ele>
        <time>2013-09-03T15:07:53.480Z</time>
      </trkpt>
      <trkpt lat="48.78451" lon="2.13254">
        <ele>149.825</ele>
        <time>2013-09-03T15:07:55.702Z</time>
      </trkpt>
      <trkpt lat="48.78441" lon="2.13251">
        <ele>148.673</ele>
        <time>2013-09-03T15:07:57.478Z</time>
      </trkpt>
      <trkpt lat="48.78423" lon="2.13247">
        <ele>147.153</ele>
        <time>2013-09-03T15:08:00.412Z</time>
      </trkpt>
      <trkpt lat="48.78406" lon="2.13243">
        <ele>145.543</ele>
        <time>2013-09-03T15:08:03.024Z</time>
      </trkpt>
      <trkpt lat="48.78387" lon="2.1324">
        <ele>143.894</ele>
        <time>2013-09-03T15:08:05.611Z</time>
      </trkpt>
      <trkpt lat="48.78368" lon="2.13238">
        <ele>143.087</ele>
        <time>2013-09-03T15:08:08.036Z</time>
      </trkpt>
      <trkpt lat="48.78345" lon="2.13235">
        <ele>143.72</ele>
        <time>2013-09-03T15:08:10.850Z</time>
      </trkpt>
      <trkpt lat="48.78323" lon="2.13231">
        <ele>144.51</ele>
        <time>2013-09-03T15:08:13.637Z</time>
      </trkpt>
      <trkpt lat="48.783" lon="2.13226">
        <ele>144.314</ele>
        <time>2013-09-03T15:08:16.615Z</time>
      </trkpt>
      <trkpt lat="48.78276" lon="2.13222">
        <ele>143.3</ele>
        <time>2013-09-03T15:08:19.476Z</time>
      </trkpt>
      <trkpt lat="48.78252" lon="2.13217">
        <ele>141.7</ele>
        <time>2013-09-03T15:08:22.241Z</time>
      </trkpt>
      <trkpt lat="48.78229" lon="2.13212">
        <ele>139.273</ele>
        <time>2013-09-03T15:08:24.794Z</time>
      </trkpt>
      <trkpt lat="48.78202" lon="2.13205">
        <ele>136.455</ele>
        <time>2013-09-03T15:08:27.533Z</time>
      </trkpt>
      <trkpt lat="48.78173" lon="2.132">
        <ele>134.416</ele>
        <time>2013-09-03T15:08:30.514Z</time>
      </trkpt>
      <trkpt lat="48.78147" lon="2.13189">
        <ele>133.34</ele>
        <time>2013-09-03T15:08:33.461Z</time>
      </trkpt>
      <trkpt lat="48.7813" lon="2.1318">
        <ele>132.311</ele>
        <time>2013-09-03T15:08:35.525Z</time>
      </trkpt>
      <trkpt lat="48.78111" lon="2.13166">
        <ele>131.011</ele>
        <time>2013-09-03T15:08:38.522Z</time>
      </trkpt>
      <trkpt lat="48.78093" lon="2.13155">
        <ele>129.811</ele>
        <time>2013-09-03T15:08:41.606Z</time>
      </trkpt>
      <trkpt lat="48.78077" lon="2.13147">
        <ele>129.057</ele>
        <time>2013-09-03T15:08:44.459Z</time>
      </trkpt>
      <trkpt lat="48.7806" lon="2.13148">
        <ele>128.704</ele>
        <time>2013-09-03T15:08:47.169Z</time>
      </trkpt>
      <trkpt lat="48.7804" lon="2.1315">
        <ele>128.562</ele>
        <time>2013-09-03T15:08:50.129Z</time>
      </trkpt>
      <trkpt lat="48.78021" lon="2.13146">
        <ele>128.707</ele>
        <time>2013-09-03T15:08:53.028Z</time>
      </trkpt>
      <trkpt lat="48.78001" lon="2.13134">
        <ele>129.094</ele>
        <time>2013-09-03T15:08:55.927Z</time>
      </trkpt>
      <trkpt lat="48.77981" lon="2.1312">
        <ele>129.229</ele>
        <time>2013-09-03T15:08:58.580Z</time>
      </trkpt>
      <trkpt lat="48.7796" lon="2.13104">
        <ele>128.556</ele>
        <time>2013-09-03T15:09:01.430Z</time>
      </trkpt>
      <trkpt lat="48.77941" lon="2.13089">
        <ele>126.947</ele>
        <time>2013-09-03T15:09:04.123Z</time>
      </trkpt>
      <trkpt lat="48.77917" lon="2.13071">
        <ele>124.885</ele>
        <time>2013-09-03T15:09:07.340Z</time>
      </trkpt>
      <trkpt lat="48.77894" lon="2.13055">
        <ele>123.192</ele>
        <time>2013-09-03T15:09:10.205Z</time>
      </trkpt>
      <trkpt lat="48.77874" lon="2.13029">
        <ele>122.715</ele>
        <time>2013-09-03T15:09:13.224Z</time>
      </trkpt>
      <trkpt lat="48.77856" lon="2.12999">
        <ele>123.498</ele>
        <time>2013-09-03T15:09:16.142Z</time>
      </trkpt>
      <trkpt lat="48.77845" lon="2.12981">
        <ele>123.999</ele>
        <time>2013-09-03T15:09:17.917Z</time>
      </trkpt>
      <trkpt lat="48.77833" lon="2.12964">
        <ele>122.713</ele>
        <time>2013-09-03T15:09:19.716Z</time>
      </trkpt>
      <trkpt lat="48.77809" lon="2.1295">
        <ele>120.182</ele>
        <time>2013-09-03T15:09:22.514Z</time>
      </trkpt>
      <trkpt lat="48.77791" lon="2.12948">
        <ele>117.666</ele>
        <time>2013-09-03T15:09:24.427Z</time>
      </trkpt>
      <trkpt lat="48.77772" lon="2.12951">
        <ele>115.412</ele>
        <time>2013-09-03T15:09:26.400Z</time>
      </trkpt>
      <trkpt lat="48.77745" lon="2.12954">
        <ele>113.479</ele>
        <time>2013-09-03T15:09:29.339Z</time>
      </trkpt>
      <trkpt lat="48.77722" lon="2.12956">
        <ele>112.373</ele>
        <time>2013-09-03T15:09:32.235Z</time>
      </trkpt>
      <trkpt lat="48.77711" lon="2.12957">
        <ele>112.239</ele>
        <time>2013-09-03T15:09:33.834Z</time>
      </trkpt>
      <trkpt lat="48.77711" lon="2.12957">
        <ele>112.596</ele>
        <time>2013-09-03T15:09:38.811Z</time>
      </trkpt>
      <trkpt lat="48.77711" lon="2.12957">
        <ele>112.867</ele>
        <time>2013-09-03T15:09:38.911Z</time>
      </trkpt>
      <trkpt lat="48.77691" lon="2.12962">
        <ele>112.814</ele>
        <time>2013-09-03T15:09:48.478Z</time>
      </trkpt>
      <trkpt lat="48.77681" lon="2.12962">
        <ele>112.614</ele>
        <time>2013-09-03T15:09:50.819Z</time>
      </trkpt>
      <trkpt lat="48.77669" lon="2.12964">
        <ele>112.664</ele>
        <time>2013-09-03T15:09:53.758Z</time>
      </trkpt>
      <trkpt lat="48.77663" lon="2.12954">
        <ele>112.976</ele>
        <time>2013-09-03T15:09:56.077Z</time>
      </trkpt>
      <trkpt lat="48.77664" lon="2.12934">
        <ele>113.148</ele>
        <time>2013-09-03T15:09:59.086Z</time>
      </trkpt>
      <trkpt lat="48.77665" lon="2.1292">
        <ele>112.821</ele>
        <time>2013-09-03T15:10:00.965Z</time>
      </trkpt>
      <trkpt lat="48.77667" lon="2.12901">
        <ele>111.753</ele>
        <time>2013-09-03T15:10:03.543Z</time>
      </trkpt>
      <trkpt lat="48.7767" lon="2.1288">
        <ele>109.825</ele>
        <time>2013-09-03T15:10:06.128Z</time>
      </trkpt>
      <trkpt lat="48.77671" lon="2.12863">
        <ele>107.425</ele>
        <time>2013-09-03T15:10:08.114Z</time>
      </trkpt>
      <trkpt lat="48.77674" lon="2.12839">
        <ele>105.27</ele>
        <time>2013-09-03T15:10:11.012Z</time>
      </trkpt>
      <trkpt lat="48.77676" lon="2.12817">
        <ele>103.783</ele>
        <time>2013-09-03T15:10:13.726Z</time>
      </trkpt>
      <trkpt lat="48.77675" lon="2.12801">
        <ele>102.682</ele>
        <time>2013-09-03T15:10:15.787Z</time>
      </trkpt>
      <trkpt lat="48.77665" lon="2.12792">
        <ele>101.826</ele>
        <time>2013-09-03T15:10:18.161Z</time>
      </trkpt>
      <trkpt lat="48.77651" lon="2.12786">
        <ele>101.492</ele>
        <time>2013-09-03T15:10:21.071Z</time>
      </trkpt>
      <trkpt lat="48.77637" lon="2.1278">
        <ele>101.823</ele>
        <time>2013-09-03T15:10:23.812Z</time>
      </trkpt>
      <trkpt lat="48.77626" lon="2.12767">
        <ele>102.57</ele>
        <time>2013-09-03T15:10:26.382Z</time>
      </trkpt>
      <trkpt lat="48.77619" lon="2.12756">
        <ele>103.276</ele>
        <time>2013-09-03T15:10:28.302Z</time>
      </trkpt>
      <trkpt lat="48.77607" lon="2.12739">
        <ele>103.633</ele>
        <time>2013-09-03T15:10:31.115Z</time>
      </trkpt>
      <trkpt lat="48.776" lon="2.12726">
        <ele>103.758</ele>
        <time>2013-09-03T15:10:32.914Z</time>
      </trkpt>
      <trkpt lat="48.77595" lon="2.127">
        <ele>103.941</ele>
        <time>2013-09-03T15:10:35.798Z</time>
      </trkpt>
      <trkpt lat="48.77599" lon="2.12678">
        <ele>104.308</ele>
        <time>2013-09-03T15:10:38.165Z</time>
      </trkpt>
      <trkpt lat="48.77599" lon="2.12655">
        <ele>104.109</ele>
        <time>2013-09-03T15:10:40.631Z</time>
      </trkpt>
      <trkpt lat="48.77596" lon="2.12638">
        <ele>102.507</ele>
        <time>2013-09-03T15:10:42.797Z</time>
      </trkpt>
      <trkpt lat="48.77592" lon="2.12622">
        <ele>100.191</ele>
        <time>2013-09-03T15:10:45.011Z</time>
      </trkpt>
      <trkpt lat="48.77587" lon="2.12606">
        <ele>98.976</ele>
        <time>2013-09-03T15:10:47.378Z</time>
      </trkpt>
      <trkpt lat="48.77582" lon="2.12583">
        <ele>99.933</ele>
        <time>2013-09-03T15:10:50.729Z</time>
      </trkpt>
      <trkpt lat="48.7758" lon="2.12569">
        <ele>102.26</ele>
        <time>2013-09-03T15:10:52.749Z</time>
      </trkpt>
      <trkpt lat="48.77577" lon="2.12549">
        <ele>104.129</ele>
        <time>2013-09-03T15:10:55.472Z</time>
      </trkpt>
      <trkpt lat="48.77579" lon="2.12528">
        <ele>104.741</ele>
        <time>2013-09-03T15:10:58.098Z</time>
      </trkpt>
      <trkpt lat="48.77588" lon="2.1251">
        <ele>104.599</ele>
        <time>2013-09-03T15:11:00.998Z</time>
      </trkpt>
      <trkpt lat="48.77595" lon="2.12501">
        <ele>104.2</ele>
        <time>2013-09-03T15:11:02.741Z</time>
      </trkpt>
      <trkpt lat="48.77609" lon="2.12497">
        <ele>103.72</ele>
        <time>2013-09-03T15:11:05.498Z</time>
      </trkpt>
      <trkpt lat="48.77623" lon="2.12491">
        <ele>103.22</ele>
        <time>2013-09-03T15:11:08.283Z</time>
      </trkpt>
      <trkpt lat="48.77632" lon="2.12486">
        <ele>103.052</ele>
        <time>2013-09-03T15:11:10.069Z</time>
      </trkpt>
      <trkpt lat="48.77644" lon="2.1248">
        <ele>103.417</ele>
        <time>2013-09-03T15:11:12.479Z</time>
      </trkpt>
      <trkpt lat="48.77654" lon="2.1247">
        <ele>103.966</ele>
        <time>2013-09-03T15:11:14.795Z</time>
      </trkpt>
      <trkpt lat="48.77664" lon="2.12454">
        <ele>104.32</ele>
        <time>2013-09-03T15:11:17.551Z</time>
      </trkpt>
      <trkpt lat="48.77671" lon="2.12444">
        <ele>104.452</ele>
        <time>2013-09-03T15:11:19.373Z</time>
      </trkpt>
      <trkpt lat="48.77682" lon="2.1243">
        <ele>104.257</ele>
        <time>2013-09-03T15:11:22.159Z</time>
      </trkpt>
      <trkpt lat="48.77689" lon="2.12419">
        <ele>103.749</ele>
        <time>2013-09-03T15:11:24.165Z</time>
      </trkpt>
      <trkpt lat="48.77695" lon="2.12408">
        <ele>103.163</ele>
        <time>2013-09-03T15:11:26.039Z</time>
      </trkpt>
      <trkpt lat="48.77703" lon="2.12389">
        <ele>102.803</ele>
        <time>2013-09-03T15:11:28.842Z</time>
      </trkpt>
      <trkpt lat="48.77708" lon="2.12374">
        <ele>102.796</ele>
        <time>2013-09-03T15:11:30.923Z</time>
      </trkpt>
      <trkpt lat="48.77714" lon="2.12354">
        <ele>103.068</ele>
        <time>2013-09-03T15:11:33.564Z</time>
      </trkpt>
      <trkpt lat="48.77718" lon="2.12338">
        <ele>103.364</ele>
        <time>2013-09-03T15:11:35.450Z</time>
      </trkpt>
      <trkpt lat="48.77725" lon="2.12317">
        <ele>103.806</ele>
        <time>2013-09-03T15:11:38.069Z</time>
      </trkpt>
      <trkpt lat="48.77729" lon="2.12304">
        <ele>104.803</ele>
        <time>2013-09-03T15:11:39.690Z</time>
      </trkpt>
      <trkpt lat="48.77735" lon="2.12287">
        <ele>106.091</ele>
        <time>2013-09-03T15:11:41.766Z</time>
      </trkpt>
      <trkpt lat="48.77739" lon="2.12274">
        <ele>106.974</ele>
        <time>2013-09-03T15:11:43.326Z</time>
      </trkpt>
      <trkpt lat="48.77745" lon="2.12256">
        <ele>107.341</ele>
        <time>2013-09-03T15:11:45.590Z</time>
      </trkpt>
      <trkpt lat="48.7775" lon="2.12244">
        <ele>107.495</ele>
        <time>2013-09-03T15:11:47.166Z</time>
      </trkpt>
      <trkpt lat="48.77757" lon="2.1223">
        <ele>107.737</ele>
        <time>2013-09-03T15:11:49.129Z</time>
      </trkpt>
      <trkpt lat="48.77761" lon="2.12216">
        <ele>108.079</ele>
        <time>2013-09-03T15:11:50.956Z</time>
      </trkpt>
      <trkpt lat="48.77768" lon="2.12196">
        <ele>108.352</ele>
        <time>2013-09-03T15:11:54.005Z</time>
      </trkpt>
      <trkpt lat="48.77771" lon="2.12176">
        <ele>108.548</ele>
        <time>2013-09-03T15:11:56.801Z</time>
      </trkpt>
      <trkpt lat="48.77772" lon="2.12158">
        <ele>108.753</ele>
        <time>2013-09-03T15:11:59.338Z</time>
      </trkpt>
      <trkpt lat="48.77772" lon="2.12143">
        <ele>109.107</ele>
        <time>2013-09-03T15:12:01.549Z</time>
      </trkpt>
      <trkpt lat="48.7777" lon="2.12123">
        <ele>110.233</ele>
        <time>2013-09-03T15:12:04.631Z</time>
      </trkpt>
      <trkpt lat="48.77768" lon="2.12105">
        <ele>112.213</ele>
        <time>2013-09-03T15:12:07.724Z</time>
      </trkpt>
      <trkpt lat="48.77765" lon="2.12091">
        <ele>114.013</ele>
        <time>2013-09-03T15:12:10.187Z</time>
      </trkpt>
      <trkpt lat="48.77765" lon="2.12073">
        <ele>114.852</ele>
        <time>2013-09-03T15:12:12.913Z</time>
      </trkpt>
      <trkpt lat="48.77765" lon="2.12055">
        <ele>114.899</ele>
        <time>2013-09-03T15:12:15.874Z</time>
      </trkpt>
      <trkpt lat="48.77764" lon="2.12037">
        <ele>113.855</ele>
        <time>2013-09-03T15:12:19.122Z</time>
      </trkpt>
      <trkpt lat="48.77764" lon="2.12019">
        <ele>111.564</ele>
        <time>2013-09-03T15:12:22.556Z</time>
      </trkpt>
      <trkpt lat="48.77763" lon="2.11998">
        <ele>109.241</ele>
        <time>2013-09-03T15:12:26.524Z</time>
      </trkpt>
      <trkpt lat="48.77763" lon="2.11984">
        <ele>107.895</ele>
        <time>2013-09-03T15:12:29.299Z</time>
      </trkpt>
      <trkpt lat="48.77767" lon="2.11968">
        <ele>107.192</ele>
        <time>2013-09-03T15:12:32.495Z</time>
      </trkpt>
      <trkpt lat="48.77771" lon="2.11952">
        <ele>106.741</ele>
        <time>2013-09-03T15:12:35.542Z</time>
      </trkpt>
      <trkpt lat="48.77775" lon="2.11929">
        <ele>106.482</ele>
        <time>2013-09-03T15:12:40.008Z</time>
      </trkpt>
      <trkpt lat="48.77774" lon="2.11913">
        <ele>106.825</ele>
        <time>2013-09-03T15:12:43.013Z</time>
      </trkpt>
      <trkpt lat="48.77768" lon="2.1189">
        <ele>108.147</ele>
        <time>2013-09-03T15:12:47.671Z</time>
      </trkpt>
      <trkpt lat="48.77768" lon="2.11871">
        <ele>110.207</ele>
        <time>2013-09-03T15:12:51.170Z</time>
      </trkpt>
      <trkpt lat="48.77767" lon="2.11855">
        <ele>112.287</ele>
        <time>2013-09-03T15:12:53.767Z</time>
      </trkpt>
      <trkpt lat="48.77766" lon="2.11835">
        <ele>113.587</ele>
        <time>2013-09-03T15:12:56.660Z</time>
      </trkpt>
      <trkpt lat="48.77763" lon="2.11817">
        <ele>113.703</ele>
        <time>2013-09-03T15:12:59.421Z</time>
      </trkpt>
      <trkpt lat="48.7776" lon="2.11798">
        <ele>113.093</ele>
        <time>2013-09-03T15:13:02.579Z</time>
      </trkpt>
      <trkpt lat="48.77754" lon="2.11776">
        <ele>112.149</ele>
        <time>2013-09-03T15:13:06.397Z</time>
      </trkpt>
      <trkpt lat="48.77745" lon="2.11745">
        <ele>111.033</ele>
        <time>2013-09-03T15:13:11.724Z</time>
      </trkpt>
      <trkpt lat="48.7774" lon="2.11725">
        <ele>110.435</ele>
        <time>2013-09-03T15:13:14.647Z</time>
      </trkpt>
      <trkpt lat="48.77738" lon="2.11709">
        <ele>111.133</ele>
        <time>2013-09-03T15:13:16.937Z</time>
      </trkpt>
      <trkpt lat="48.77737" lon="2.11688">
        <ele>112.672</ele>
        <time>2013-09-03T15:13:19.880Z</time>
      </trkpt>
      <trkpt lat="48.77737" lon="2.11672">
        <ele>113.929</ele>
        <time>2013-09-03T15:13:22.555Z</time>
      </trkpt>
      <trkpt lat="48.77736" lon="2.11655">
        <ele>114.295</ele>
        <time>2013-09-03T15:13:25.153Z</time>
      </trkpt>
      <trkpt lat="48.77731" lon="2.1163">
        <ele>113.75</ele>
        <time>2013-09-03T15:13:28.821Z</time>
      </trkpt>
      <trkpt lat="48.77727" lon="2.11617">
        <ele>112.679</ele>
        <time>2013-09-03T15:13:30.614Z</time>
      </trkpt>
      <trkpt lat="48.77722" lon="2.116">
        <ele>111.556</ele>
        <time>2013-09-03T15:13:32.935Z</time>
      </trkpt>
      <trkpt lat="48.77714" lon="2.11583">
        <ele>110.606</ele>
        <time>2013-09-03T15:13:35.572Z</time>
      </trkpt>
      <trkpt lat="48.77706" lon="2.11563">
        <ele>110.004</ele>
        <time>2013-09-03T15:13:38.904Z</time>
      </trkpt>
      <trkpt lat="48.77701" lon="2.1155">
        <ele>110.558</ele>
        <time>2013-09-03T15:13:41.023Z</time>
      </trkpt>
      <trkpt lat="48.77695" lon="2.11535">
        <ele>112.515</ele>
        <time>2013-09-03T15:13:43.312Z</time>
      </trkpt>
      <trkpt lat="48.77691" lon="2.11517">
        <ele>114.533</ele>
        <time>2013-09-03T15:13:45.834Z</time>
      </trkpt>
      <trkpt lat="48.77687" lon="2.11497">
        <ele>114.993</ele>
        <time>2013-09-03T15:13:48.773Z</time>
      </trkpt>
      <trkpt lat="48.77687" lon="2.11475">
        <ele>113.775</ele>
        <time>2013-09-03T15:13:52.313Z</time>
      </trkpt>
      <trkpt lat="48.77688" lon="2.11459">
        <ele>112.011</ele>
        <time>2013-09-03T15:13:54.942Z</time>
      </trkpt>
      <trkpt lat="48.77691" lon="2.11435">
        <ele>111.324</ele>
        <time>2013-09-03T15:13:58.598Z</time>
      </trkpt>
      <trkpt lat="48.77697" lon="2.11416">
        <ele>112.594</ele>
        <time>2013-09-03T15:14:01.621Z</time>
      </trkpt>
      <trkpt lat="48.77701" lon="2.11396">
        <ele>115.048</ele>
        <time>2013-09-03T15:14:04.544Z</time>
      </trkpt>
      <trkpt lat="48.77701" lon="2.1138">
        <ele>116.994</ele>
        <time>2013-09-03T15:14:07.057Z</time>
      </trkpt>
      <trkpt lat="48.77702" lon="2.11366">
        <ele>117.714</ele>
        <time>2013-09-03T15:14:09.218Z</time>
      </trkpt>
      <trkpt lat="48.77702" lon="2.11341">
        <ele>117.793</ele>
        <time>2013-09-03T15:14:13.184Z</time>
      </trkpt>
      <trkpt lat="48.77704" lon="2.11317">
        <ele>117.779</ele>
        <time>2013-09-03T15:14:16.724Z</time>
      </trkpt>
      <trkpt lat="48.7771" lon="2.11297">
        <ele>117.816</ele>
        <time>2013-09-03T15:14:19.888Z</time>
      </trkpt>
      <trkpt lat="48.77713" lon="2.1128">
        <ele>118.136</ele>
        <time>2013-09-03T15:14:22.366Z</time>
      </trkpt>
      <trkpt lat="48.77713" lon="2.11263">
        <ele>119.034</ele>
        <time>2013-09-03T15:14:25.080Z</time>
      </trkpt>
      <trkpt lat="48.77711" lon="2.11243">
        <ele>120.248</ele>
        <time>2013-09-03T15:14:28.428Z</time>
      </trkpt>
      <trkpt lat="48.77709" lon="2.11222">
        <ele>120.637</ele>
        <time>2013-09-03T15:14:32.416Z</time>
      </trkpt>
      <trkpt lat="48.77706" lon="2.11204">
        <ele>119.579</ele>
        <time>2013-09-03T15:14:35.566Z</time>
      </trkpt>
      <trkpt lat="48.77705" lon="2.11183">
        <ele>118.383</ele>
        <time>2013-09-03T15:14:38.932Z</time>
      </trkpt>
      <trkpt lat="48.77703" lon="2.11167">
        <ele>118.29</ele>
        <time>2013-09-03T15:14:41.448Z</time>
      </trkpt>
      <trkpt lat="48.77699" lon="2.11149">
        <ele>118.879</ele>
        <time>2013-09-03T15:14:44.739Z</time>
      </trkpt>
      <trkpt lat="48.77694" lon="2.11125">
        <ele>119.384</ele>
        <time>2013-09-03T15:14:48.829Z</time>
      </trkpt>
      <trkpt lat="48.7769" lon="2.11112">
        <ele>119.676</ele>
        <time>2013-09-03T15:14:51.196Z</time>
      </trkpt>
      <trkpt lat="48.77685" lon="2.11092">
        <ele>119.93</ele>
        <time>2013-09-03T15:14:54.696Z</time>
      </trkpt>
      <trkpt lat="48.77679" lon="2.11076">
        <ele>120.314</ele>
        <time>2013-09-03T15:14:57.625Z</time>
      </trkpt>
      <trkpt lat="48.77675" lon="2.11061">
        <ele>121.039</ele>
        <time>2013-09-03T15:15:00.433Z</time>
      </trkpt>
      <trkpt lat="48.77668" lon="2.11041">
        <ele>122.328</ele>
        <time>2013-09-03T15:15:04.206Z</time>
      </trkpt>
      <trkpt lat="48.77667" lon="2.11023">
        <ele>124.186</ele>
        <time>2013-09-03T15:15:07.297Z</time>
      </trkpt>
      <trkpt lat="48.77662" lon="2.11009">
        <ele>126.374</ele>
        <time>2013-09-03T15:15:10.177Z</time>
      </trkpt>
      <trkpt lat="48.77658" lon="2.10991">
        <ele>128.31</ele>
        <time>2013-09-03T15:15:13.493Z</time>
      </trkpt>
      <trkpt lat="48.77653" lon="2.10978">
        <ele>128.453</ele>
        <time>2013-09-03T15:15:16.277Z</time>
      </trkpt>
      <trkpt lat="48.77648" lon="2.10961">
        <ele>125.972</ele>
        <time>2013-09-03T15:15:19.464Z</time>
      </trkpt>
      <trkpt lat="48.77642" lon="2.10945">
        <ele>122.509</ele>
        <time>2013-09-03T15:15:22.572Z</time>
      </trkpt>
      <trkpt lat="48.77634" lon="2.10929">
        <ele>119.258</ele>
        <time>2013-09-03T15:15:25.639Z</time>
      </trkpt>
      <trkpt lat="48.77626" lon="2.10911">
        <ele>116.071</ele>
        <time>2013-09-03T15:15:29.336Z</time>
      </trkpt>
      <trkpt lat="48.7762" lon="2.10894">
        <ele>113.914</ele>
        <time>2013-09-03T15:15:32.729Z</time>
      </trkpt>
      <trkpt lat="48.77617" lon="2.1088">
        <ele>113.671</ele>
        <time>2013-09-03T15:15:35.056Z</time>
      </trkpt>
      <trkpt lat="48.77609" lon="2.10862">
        <ele>115.292</ele>
        <time>2013-09-03T15:15:38.741Z</time>
      </trkpt>
      <trkpt lat="48.776" lon="2.10845">
        <ele>118.101</ele>
        <time>2013-09-03T15:15:42.141Z</time>
      </trkpt>
      <trkpt lat="48.77594" lon="2.10831">
        <ele>120.232</ele>
        <time>2013-09-03T15:15:44.874Z</time>
      </trkpt>
      <trkpt lat="48.77584" lon="2.1081">
        <ele>120.55</ele>
        <time>2013-09-03T15:15:48.967Z</time>
      </trkpt>
      <trkpt lat="48.77572" lon="2.10788">
        <ele>120.569</ele>
        <time>2013-09-03T15:15:53.552Z</time>
      </trkpt>
      <trkpt lat="48.77565" lon="2.10772">
        <ele>121.692</ele>
        <time>2013-09-03T15:15:56.754Z</time>
      </trkpt>
      <trkpt lat="48.77559" lon="2.10759">
        <ele>123.152</ele>
        <time>2013-09-03T15:15:59.228Z</time>
      </trkpt>
      <trkpt lat="48.77555" lon="2.10741">
        <ele>123.878</ele>
        <time>2013-09-03T15:16:02.181Z</time>
      </trkpt>
      <trkpt lat="48.77549" lon="2.10724">
        <ele>124.017</ele>
        <time>2013-09-03T15:16:05.199Z</time>
      </trkpt>
      <trkpt lat="48.77544" lon="2.10706">
        <ele>123.981</ele>
        <time>2013-09-03T15:16:08.051Z</time>
      </trkpt>
      <trkpt lat="48.77541" lon="2.10691">
        <ele>123.937</ele>
        <time>2013-09-03T15:16:10.115Z</time>
      </trkpt>
      <trkpt lat="48.77542" lon="2.10669">
        <ele>123.806</ele>
        <time>2013-09-03T15:16:12.951Z</time>
      </trkpt>
      <trkpt lat="48.77546" lon="2.10654">
        <ele>123.256</ele>
        <time>2013-09-03T15:16:15.041Z</time>
      </trkpt>
      <trkpt lat="48.77556" lon="2.1063">
        <ele>122.248</ele>
        <time>2013-09-03T15:16:18.591Z</time>
      </trkpt>
      <trkpt lat="48.77565" lon="2.10608">
        <ele>121.431</ele>
        <time>2013-09-03T15:16:21.942Z</time>
      </trkpt>
      <trkpt lat="48.77569" lon="2.10593">
        <ele>121.258</ele>
        <time>2013-09-03T15:16:23.975Z</time>
      </trkpt>
      <trkpt lat="48.77575" lon="2.10575">
        <ele>121.502</ele>
        <time>2013-09-03T15:16:26.564Z</time>
      </trkpt>
      <trkpt lat="48.77582" lon="2.10564">
        <ele>121.839</ele>
        <time>2013-09-03T15:16:28.379Z</time>
      </trkpt>
      <trkpt lat="48.77589" lon="2.10545">
        <ele>121.878</ele>
        <time>2013-09-03T15:16:31.154Z</time>
      </trkpt>
      <trkpt lat="48.77595" lon="2.10533">
        <ele>121.438</ele>
        <time>2013-09-03T15:16:33.013Z</time>
      </trkpt>
      <trkpt lat="48.77602" lon="2.10514">
        <ele>120.847</ele>
        <time>2013-09-03T15:16:35.722Z</time>
      </trkpt>
      <trkpt lat="48.77605" lon="2.10499">
        <ele>120.335</ele>
        <time>2013-09-03T15:16:37.654Z</time>
      </trkpt>
      <trkpt lat="48.77611" lon="2.10477">
        <ele>119.876</ele>
        <time>2013-09-03T15:16:40.576Z</time>
      </trkpt>
      <trkpt lat="48.77615" lon="2.10455">
        <ele>119.702</ele>
        <time>2013-09-03T15:16:43.385Z</time>
      </trkpt>
      <trkpt lat="48.77618" lon="2.1044">
        <ele>119.947</ele>
        <time>2013-09-03T15:16:45.342Z</time>
      </trkpt>
      <trkpt lat="48.77622" lon="2.10417">
        <ele>120.13</ele>
        <time>2013-09-03T15:16:48.137Z</time>
      </trkpt>
      <trkpt lat="48.77625" lon="2.10392">
        <ele>119.86</ele>
        <time>2013-09-03T15:16:51.254Z</time>
      </trkpt>
      <trkpt lat="48.77627" lon="2.10367">
        <ele>119.314</ele>
        <time>2013-09-03T15:16:54.316Z</time>
      </trkpt>
      <trkpt lat="48.77628" lon="2.10343">
        <ele>118.784</ele>
        <time>2013-09-03T15:16:57.323Z</time>
      </trkpt>
      <trkpt lat="48.77629" lon="2.10329">
        <ele>118.433</ele>
        <time>2013-09-03T15:16:59.095Z</time>
      </trkpt>
      <trkpt lat="48.77629" lon="2.10308">
        <ele>118.229</ele>
        <time>2013-09-03T15:17:01.638Z</time>
      </trkpt>
      <trkpt lat="48.77626" lon="2.10285">
        <ele>117.833</ele>
        <time>2013-09-03T15:17:04.518Z</time>
      </trkpt>
      <trkpt lat="48.77624" lon="2.10271">
        <ele>117.146</ele>
        <time>2013-09-03T15:17:06.295Z</time>
      </trkpt>
      <trkpt lat="48.77622" lon="2.10254">
        <ele>116.539</ele>
        <time>2013-09-03T15:17:08.410Z</time>
      </trkpt>
      <trkpt lat="48.77621" lon="2.10239">
        <ele>116.348</ele>
        <time>2013-09-03T15:17:10.362Z</time>
      </trkpt>
      <trkpt lat="48.77618" lon="2.10216">
        <ele>116.503</ele>
        <time>2013-09-03T15:17:13.378Z</time>
      </trkpt>
      <trkpt lat="48.77617" lon="2.102">
        <ele>117.402</ele>
        <time>2013-09-03T15:17:15.408Z</time>
      </trkpt>
      <trkpt lat="48.77618" lon="2.10179">
        <ele>119.661</ele>
        <time>2013-09-03T15:17:18.128Z</time>
      </trkpt>
      <trkpt lat="48.77621" lon="2.10153">
        <ele>122.48</ele>
        <time>2013-09-03T15:17:21.442Z</time>
      </trkpt>
      <trkpt lat="48.77622" lon="2.10138">
        <ele>124.306</ele>
        <time>2013-09-03T15:17:23.482Z</time>
      </trkpt>
      <trkpt lat="48.77625" lon="2.10117">
        <ele>124.692</ele>
        <time>2013-09-03T15:17:26.262Z</time>
      </trkpt>
      <trkpt lat="48.77626" lon="2.10101">
        <ele>123.991</ele>
        <time>2013-09-03T15:17:28.435Z</time>
      </trkpt>
      <trkpt lat="48.77627" lon="2.10077">
        <ele>122.54</ele>
        <time>2013-09-03T15:17:31.738Z</time>
      </trkpt>
      <trkpt lat="48.77633" lon="2.10057">
        <ele>120.911</ele>
        <time>2013-09-03T15:17:34.726Z</time>
      </trkpt>
      <trkpt lat="48.77638" lon="2.10042">
        <ele>119.738</ele>
        <time>2013-09-03T15:17:37.100Z</time>
      </trkpt>
      <trkpt lat="48.77645" lon="2.10031">
        <ele>119.158</ele>
        <time>2013-09-03T15:17:39.189Z</time>
      </trkpt>
      <trkpt lat="48.77659" lon="2.10022">
        <ele>118.705</ele>
        <time>2013-09-03T15:17:42.398Z</time>
      </trkpt>
      <trkpt lat="48.77667" lon="2.10018">
        <ele>117.807</ele>
        <time>2013-09-03T15:17:44.390Z</time>
      </trkpt>
      <trkpt lat="48.77676" lon="2.10013">
        <ele>116.562</ele>
        <time>2013-09-03T15:17:46.411Z</time>
      </trkpt>
      <trkpt lat="48.7769" lon="2.1001">
        <ele>115.805</ele>
        <time>2013-09-03T15:17:49.603Z</time>
      </trkpt>
      <trkpt lat="48.77704" lon="2.10011">
        <ele>115.965</ele>
        <time>2013-09-03T15:17:52.526Z</time>
      </trkpt>
      <trkpt lat="48.77717" lon="2.1001">
        <ele>116.623</ele>
        <time>2013-09-03T15:17:55.323Z</time>
      </trkpt>
      <trkpt lat="48.77729" lon="2.1001">
        <ele>117.36</ele>
        <time>2013-09-03T15:17:57.880Z</time>
      </trkpt>
      <trkpt lat="48.77745" lon="2.10015">
        <ele>118.076</ele>
        <time>2013-09-03T15:18:01.667Z</time>
      </trkpt>
      <trkpt lat="48.77757" lon="2.1002">
        <ele>118.36</ele>
        <time>2013-09-03T15:18:04.455Z</time>
      </trkpt>
      <trkpt lat="48.77771" lon="2.10025">
        <ele>117.542</ele>
        <time>2013-09-03T15:18:07.859Z</time>
      </trkpt>
      <trkpt lat="48.77785" lon="2.10024">
        <ele>115.68</ele>
        <time>2013-09-03T15:18:11.225Z</time>
      </trkpt>
      <trkpt lat="48.77795" lon="2.10009">
        <ele>113.763</ele>
        <time>2013-09-03T15:18:14.646Z</time>
      </trkpt>
      <trkpt lat="48.77799" lon="2.09997">
        <ele>112.992</ele>
        <time>2013-09-03T15:18:16.900Z</time>
      </trkpt>
      <trkpt lat="48.77805" lon="2.09979">
        <ele>113.65</ele>
        <time>2013-09-03T15:18:20.064Z</time>
      </trkpt>
      <trkpt lat="48.77808" lon="2.09962">
        <ele>115.435</ele>
        <time>2013-09-03T15:18:22.725Z</time>
      </trkpt>
      <trkpt lat="48.77815" lon="2.09943">
        <ele>117.846</ele>
        <time>2013-09-03T15:18:26.174Z</time>
      </trkpt>
      <trkpt lat="48.77819" lon="2.0993">
        <ele>119.905</ele>
        <time>2013-09-03T15:18:28.381Z</time>
      </trkpt>
      <trkpt lat="48.77827" lon="2.09909">
        <ele>121.388</ele>
        <time>2013-09-03T15:18:32.455Z</time>
      </trkpt>
      <trkpt lat="48.77834" lon="2.09897">
        <ele>122.891</ele>
        <time>2013-09-03T15:18:34.985Z</time>
      </trkpt>
      <trkpt lat="48.77842" lon="2.09881">
        <ele>124.083</ele>
        <time>2013-09-03T15:18:38.316Z</time>
      </trkpt>
      <trkpt lat="48.77853" lon="2.09869">
        <ele>124.444</ele>
        <time>2013-09-03T15:18:41.594Z</time>
      </trkpt>
      <trkpt lat="48.77863" lon="2.09866">
        <ele>124.217</ele>
        <time>2013-09-03T15:18:44.064Z</time>
      </trkpt>
      <trkpt lat="48.77874" lon="2.09868">
        <ele>123.377</ele>
        <time>2013-09-03T15:18:46.828Z</time>
      </trkpt>
      <trkpt lat="48.77887" lon="2.09876">
        <ele>121.598</ele>
        <time>2013-09-03T15:18:50.710Z</time>
      </trkpt>
      <trkpt lat="48.77898" lon="2.09884">
        <ele>119.397</ele>
        <time>2013-09-03T15:18:53.876Z</time>
      </trkpt>
      <trkpt lat="48.77908" lon="2.09892">
        <ele>118.12</ele>
        <time>2013-09-03T15:18:57.124Z</time>
      </trkpt>
      <trkpt lat="48.7792" lon="2.09898">
        <ele>118.369</ele>
        <time>2013-09-03T15:19:00.789Z</time>
      </trkpt>
      <trkpt lat="48.77932" lon="2.09901">
        <ele>119.415</ele>
        <time>2013-09-03T15:19:04.017Z</time>
      </trkpt>
      <trkpt lat="48.77944" lon="2.09905">
        <ele>119.609</ele>
        <time>2013-09-03T15:19:07.538Z</time>
      </trkpt>
      <trkpt lat="48.77956" lon="2.09908">
        <ele>118.23</ele>
        <time>2013-09-03T15:19:10.955Z</time>
      </trkpt>
      <trkpt lat="48.77965" lon="2.09909">
        <ele>116.871</ele>
        <time>2013-09-03T15:19:14.187Z</time>
      </trkpt>
      <trkpt lat="48.77975" lon="2.09905">
        <ele>116.974</ele>
        <time>2013-09-03T15:19:17.865Z</time>
      </trkpt>
      <trkpt lat="48.77986" lon="2.09901">
        <ele>118.071</ele>
        <time>2013-09-03T15:19:22.180Z</time>
      </trkpt>
      <trkpt lat="48.78001" lon="2.09896">
        <ele>119.561</ele>
        <time>2013-09-03T15:19:28.633Z</time>
      </trkpt>
      <trkpt lat="48.78011" lon="2.09892">
        <ele>121.102</ele>
        <time>2013-09-03T15:19:32.837Z</time>
      </trkpt>
      <trkpt lat="48.78019" lon="2.09887">
        <ele>122.137</ele>
        <time>2013-09-03T15:19:36.496Z</time>
      </trkpt>
      <trkpt lat="48.78027" lon="2.09879">
        <ele>122.613</ele>
        <time>2013-09-03T15:19:39.790Z</time>
      </trkpt>
      <trkpt lat="48.78035" lon="2.09872">
        <ele>123.258</ele>
        <time>2013-09-03T15:19:42.980Z</time>
      </trkpt>
      <trkpt lat="48.78044" lon="2.09863">
        <ele>124.515</ele>
        <time>2013-09-03T15:19:46.714Z</time>
      </trkpt>
      <trkpt lat="48.78051" lon="2.09851">
        <ele>125.844</ele>
        <time>2013-09-03T15:19:50.073Z</time>
      </trkpt>
      <trkpt lat="48.78056" lon="2.09837">
        <ele>126.694</ele>
        <time>2013-09-03T15:19:53.523Z</time>
      </trkpt>
      <trkpt lat="48.78061" lon="2.09822">
        <ele>127.456</ele>
        <time>2013-09-03T15:19:57.059Z</time>
      </trkpt>
      <trkpt lat="48.78063" lon="2.09803">
        <ele>128.468</ele>
        <time>2013-09-03T15:20:00.778Z</time>
      </trkpt>
      <trkpt lat="48.78064" lon="2.09788">
        <ele>129.324</ele>
        <time>2013-09-03T15:20:03.493Z</time>
      </trkpt>
      <trkpt lat="48.78065" lon="2.0977">
        <ele>129.68</ele>
        <time>2013-09-03T15:20:06.889Z</time>
      </trkpt>
      <trkpt lat="48.78065" lon="2.09755">
        <ele>129.428</ele>
        <time>2013-09-03T15:20:09.750Z</time>
      </trkpt>
      <trkpt lat="48.78064" lon="2.09736">
        <ele>128.498</ele>
        <time>2013-09-03T15:20:13.571Z</time>
      </trkpt>
      <trkpt lat="48.7806" lon="2.09719">
        <ele>127.356</ele>
        <time>2013-09-03T15:20:17.419Z</time>
      </trkpt>
      <trkpt lat="48.78056" lon="2.09702">
        <ele>126.753</ele>
        <time>2013-09-03T15:20:21.572Z</time>
      </trkpt>
      <trkpt lat="48.78047" lon="2.09683">
        <ele>126.946</ele>
        <time>2013-09-03T15:20:27.303Z</time>
      </trkpt>
      <trkpt lat="48.78042" lon="2.09665">
        <ele>127.57</ele>
        <time>2013-09-03T15:20:32.549Z</time>
      </trkpt>
      <trkpt lat="48.78038" lon="2.09645">
        <ele>127.794</ele>
        <time>2013-09-03T15:20:37.619Z</time>
      </trkpt>
      <trkpt lat="48.78036" lon="2.09631">
        <ele>127.245</ele>
        <time>2013-09-03T15:20:41.186Z</time>
      </trkpt>
      <trkpt lat="48.78034" lon="2.09617">
        <ele>126.597</ele>
        <time>2013-09-03T15:20:44.611Z</time>
      </trkpt>
      <trkpt lat="48.78033" lon="2.096">
        <ele>126.491</ele>
        <time>2013-09-03T15:20:48.493Z</time>
      </trkpt>
      <trkpt lat="48.78033" lon="2.09585">
        <ele>126.556</ele>
        <time>2013-09-03T15:20:51.632Z</time>
      </trkpt>
      <trkpt lat="48.78033" lon="2.09571">
        <ele>126.34</ele>
        <time>2013-09-03T15:20:54.326Z</time>
      </trkpt>
      <trkpt lat="48.78038" lon="2.0956">
        <ele>126.151</ele>
        <time>2013-09-03T15:20:56.823Z</time>
      </trkpt>
      <trkpt lat="48.78046" lon="2.09548">
        <ele>126.351</ele>
        <time>2013-09-03T15:20:59.682Z</time>
      </trkpt>
      <trkpt lat="48.78051" lon="2.09534">
        <ele>126.754</ele>
        <time>2013-09-03T15:21:02.024Z</time>
      </trkpt>
      <trkpt lat="48.7805" lon="2.09517">
        <ele>127.012</ele>
        <time>2013-09-03T15:21:04.546Z</time>
      </trkpt>
      <trkpt lat="48.78048" lon="2.09501">
        <ele>127.076</ele>
        <time>2013-09-03T15:21:06.899Z</time>
      </trkpt>
      <trkpt lat="48.78048" lon="2.09484">
        <ele>127.187</ele>
        <time>2013-09-03T15:21:09.356Z</time>
      </trkpt>
      <trkpt lat="48.78046" lon="2.09467">
        <ele>127.465</ele>
        <time>2013-09-03T15:21:11.836Z</time>
      </trkpt>
      <trkpt lat="48.78045" lon="2.09448">
        <ele>127.323</ele>
        <time>2013-09-03T15:21:14.575Z</time>
      </trkpt>
      <trkpt lat="48.78044" lon="2.09428">
        <ele>126.411</ele>
        <time>2013-09-03T15:21:17.527Z</time>
      </trkpt>
      <trkpt lat="48.78043" lon="2.09414">
        <ele>125.359</ele>
        <time>2013-09-03T15:21:19.693Z</time>
      </trkpt>
      <trkpt lat="48.78043" lon="2.09394">
        <ele>124.903</ele>
        <time>2013-09-03T15:21:22.623Z</time>
      </trkpt>
      <trkpt lat="48.78043" lon="2.0938">
        <ele>125.077</ele>
        <time>2013-09-03T15:21:24.658Z</time>
      </trkpt>
      <trkpt lat="48.78043" lon="2.09361">
        <ele>125.766</ele>
        <time>2013-09-03T15:21:27.470Z</time>
      </trkpt>
      <trkpt lat="48.78043" lon="2.09343">
        <ele>126.837</ele>
        <time>2013-09-03T15:21:30.063Z</time>
      </trkpt>
      <trkpt lat="48.78045" lon="2.09326">
        <ele>127.899</ele>
        <time>2013-09-03T15:21:32.665Z</time>
      </trkpt>
      <trkpt lat="48.78046" lon="2.09307">
        <ele>128.509</ele>
        <time>2013-09-03T15:21:35.437Z</time>
      </trkpt>
      <trkpt lat="48.78046" lon="2.09288">
        <ele>128.774</ele>
        <time>2013-09-03T15:21:38.290Z</time>
      </trkpt>
      <trkpt lat="48.78048" lon="2.09269">
        <ele>129.124</ele>
        <time>2013-09-03T15:21:41.105Z</time>
      </trkpt>
      <trkpt lat="48.78052" lon="2.09249">
        <ele>129.783</ele>
        <time>2013-09-03T15:21:44.050Z</time>
      </trkpt>
      <trkpt lat="48.78055" lon="2.09235">
        <ele>130.894</ele>
        <time>2013-09-03T15:21:46.254Z</time>
      </trkpt>
      <trkpt lat="48.78059" lon="2.09217">
        <ele>132.354</ele>
        <time>2013-09-03T15:21:49.259Z</time>
      </trkpt>
      <trkpt lat="48.78062" lon="2.09203">
        <ele>133.552</ele>
        <time>2013-09-03T15:21:51.469Z</time>
      </trkpt>
      <trkpt lat="48.78066" lon="2.0919">
        <ele>134.056</ele>
        <time>2013-09-03T15:21:53.637Z</time>
      </trkpt>
      <trkpt lat="48.78072" lon="2.09173">
        <ele>134.003</ele>
        <time>2013-09-03T15:21:56.672Z</time>
      </trkpt>
      <trkpt lat="48.78079" lon="2.09159">
        <ele>133.685</ele>
        <time>2013-09-03T15:21:59.489Z</time>
      </trkpt>
      <trkpt lat="48.78086" lon="2.09145">
        <ele>133.379</ele>
        <time>2013-09-03T15:22:02.445Z</time>
      </trkpt>
      <trkpt lat="48.78097" lon="2.09136">
        <ele>133.388</ele>
        <time>2013-09-03T15:22:05.563Z</time>
      </trkpt>
      <trkpt lat="48.78105" lon="2.09125">
        <ele>133.931</ele>
        <time>2013-09-03T15:22:08.643Z</time>
      </trkpt>
      <trkpt lat="48.78114" lon="2.09113">
        <ele>134.766</ele>
        <time>2013-09-03T15:22:11.865Z</time>
      </trkpt>
      <trkpt lat="48.78124" lon="2.09104">
        <ele>135.628</ele>
        <time>2013-09-03T15:22:14.835Z</time>
      </trkpt>
      <trkpt lat="48.78134" lon="2.09097">
        <ele>136.611</ele>
        <time>2013-09-03T15:22:17.697Z</time>
      </trkpt>
      <trkpt lat="48.78142" lon="2.0909">
        <ele>137.575</ele>
        <time>2013-09-03T15:22:20.261Z</time>
      </trkpt>
      <trkpt lat="48.78153" lon="2.09085">
        <ele>138.299</ele>
        <time>2013-09-03T15:22:23.288Z</time>
      </trkpt>
      <trkpt lat="48.78162" lon="2.09075">
        <ele>138.878</ele>
        <time>2013-09-03T15:22:26.185Z</time>
      </trkpt>
      <trkpt lat="48.78172" lon="2.09065">
        <ele>139.463</ele>
        <time>2013-09-03T15:22:29.437Z</time>
      </trkpt>
      <trkpt lat="48.7818" lon="2.09055">
        <ele>140.061</ele>
        <time>2013-09-03T15:22:32.258Z</time>
      </trkpt>
      <trkpt lat="48.7819" lon="2.09046">
        <ele>140.323</ele>
        <time>2013-09-03T15:22:35.200Z</time>
      </trkpt>
      <trkpt lat="48.78199" lon="2.09035">
        <ele>139.912</ele>
        <time>2013-09-03T15:22:38.188Z</time>
      </trkpt>
      <trkpt lat="48.78206" lon="2.09023">
        <ele>139.119</ele>
        <time>2013-09-03T15:22:40.946Z</time>
      </trkpt>
      <trkpt lat="48.78213" lon="2.09011">
        <ele>138.407</ele>
        <time>2013-09-03T15:22:43.385Z</time>
      </trkpt>
      <trkpt lat="48.78218" lon="2.08998">
        <ele>137.962</ele>
        <time>2013-09-03T15:22:45.677Z</time>
      </trkpt>
      <trkpt lat="48.78222" lon="2.08984">
        <ele>138.104</ele>
        <time>2013-09-03T15:22:48.012Z</time>
      </trkpt>
      <trkpt lat="48.78226" lon="2.08965">
        <ele>138.936</ele>
        <time>2013-09-03T15:22:50.793Z</time>
      </trkpt>
      <trkpt lat="48.78228" lon="2.08944">
        <ele>139.793</ele>
        <time>2013-09-03T15:22:53.641Z</time>
      </trkpt>
      <trkpt lat="48.78229" lon="2.08921">
        <ele>139.786</ele>
        <time>2013-09-03T15:22:56.910Z</time>
      </trkpt>
      <trkpt lat="48.78231" lon="2.08904">
        <ele>138.89</ele>
        <time>2013-09-03T15:22:59.373Z</time>
      </trkpt>
      <trkpt lat="48.78234" lon="2.08882">
        <ele>137.895</ele>
        <time>2013-09-03T15:23:02.773Z</time>
      </trkpt>
      <trkpt lat="48.78236" lon="2.08866">
        <ele>137.399</ele>
        <time>2013-09-03T15:23:05.246Z</time>
      </trkpt>
      <trkpt lat="48.78239" lon="2.08848">
        <ele>137.267</ele>
        <time>2013-09-03T15:23:08.158Z</time>
      </trkpt>
      <trkpt lat="48.7824" lon="2.08832">
        <ele>136.936</ele>
        <time>2013-09-03T15:23:10.687Z</time>
      </trkpt>
      <trkpt lat="48.78241" lon="2.08815">
        <ele>136.135</ele>
        <time>2013-09-03T15:23:13.237Z</time>
      </trkpt>
      <trkpt lat="48.78241" lon="2.08797">
        <ele>135.425</ele>
        <time>2013-09-03T15:23:16.028Z</time>
      </trkpt>
      <trkpt lat="48.78242" lon="2.08777">
        <ele>135.848</ele>
        <time>2013-09-03T15:23:19.038Z</time>
      </trkpt>
      <trkpt lat="48.78244" lon="2.08762">
        <ele>137.841</ele>
        <time>2013-09-03T15:23:21.220Z</time>
      </trkpt>
      <trkpt lat="48.78246" lon="2.08743">
        <ele>140.42</ele>
        <time>2013-09-03T15:23:24.036Z</time>
      </trkpt>
      <trkpt lat="48.78248" lon="2.08724">
        <ele>141.917</ele>
        <time>2013-09-03T15:23:26.827Z</time>
      </trkpt>
      <trkpt lat="48.78251" lon="2.08711">
        <ele>141.899</ele>
        <time>2013-09-03T15:23:28.972Z</time>
      </trkpt>
      <trkpt lat="48.78256" lon="2.08692">
        <ele>141.26</ele>
        <time>2013-09-03T15:23:32.120Z</time>
      </trkpt>
      <trkpt lat="48.78258" lon="2.08673">
        <ele>140.827</ele>
        <time>2013-09-03T15:23:35.125Z</time>
      </trkpt>
      <trkpt lat="48.78259" lon="2.08659">
        <ele>140.353</ele>
        <time>2013-09-03T15:23:37.364Z</time>
      </trkpt>
      <trkpt lat="48.7826" lon="2.0864">
        <ele>139.246</ele>
        <time>2013-09-03T15:23:40.420Z</time>
      </trkpt>
      <trkpt lat="48.78263" lon="2.08623">
        <ele>137.623</ele>
        <time>2013-09-03T15:23:43.301Z</time>
      </trkpt>
      <trkpt lat="48.78269" lon="2.08609">
        <ele>136.186</ele>
        <time>2013-09-03T15:23:46.012Z</time>
      </trkpt>
      <trkpt lat="48.78277" lon="2.08601">
        <ele>135.554</ele>
        <time>2013-09-03T15:23:48.591Z</time>
      </trkpt>
      <trkpt lat="48.78286" lon="2.08594">
        <ele>135.854</ele>
        <time>2013-09-03T15:23:50.869Z</time>
      </trkpt>
      <trkpt lat="48.78296" lon="2.08586">
        <ele>137.29</ele>
        <time>2013-09-03T15:23:53.696Z</time>
      </trkpt>
      <trkpt lat="48.78306" lon="2.08576">
        <ele>139.715</ele>
        <time>2013-09-03T15:23:56.722Z</time>
      </trkpt>
      <trkpt lat="48.78315" lon="2.08567">
        <ele>141.248</ele>
        <time>2013-09-03T15:23:59.369Z</time>
      </trkpt>
      <trkpt lat="48.78323" lon="2.08557">
        <ele>140.374</ele>
        <time>2013-09-03T15:24:01.908Z</time>
      </trkpt>
      <trkpt lat="48.78331" lon="2.08545">
        <ele>138.187</ele>
        <time>2013-09-03T15:24:04.798Z</time>
      </trkpt>
      <trkpt lat="48.7834" lon="2.08534">
        <ele>136.39</ele>
        <time>2013-09-03T15:24:07.808Z</time>
      </trkpt>
      <trkpt lat="48.78348" lon="2.08522">
        <ele>135.387</ele>
        <time>2013-09-03T15:24:10.722Z</time>
      </trkpt>
      <trkpt lat="48.78354" lon="2.08508">
        <ele>134.751</ele>
        <time>2013-09-03T15:24:13.307Z</time>
      </trkpt>
      <trkpt lat="48.78358" lon="2.08492">
        <ele>134.241</ele>
        <time>2013-09-03T15:24:16.064Z</time>
      </trkpt>
      <trkpt lat="48.78364" lon="2.0848">
        <ele>133.942</ele>
        <time>2013-09-03T15:24:18.447Z</time>
      </trkpt>
      <trkpt lat="48.78371" lon="2.08464">
        <ele>133.883</ele>
        <time>2013-09-03T15:24:21.554Z</time>
      </trkpt>
    </trkseg>
  </trk>
</gpx>